<?xml version="1.0" encoding="UTF-8" standalone="no" ?>
<gpx xmlns="http://www.topografix.com/GPX/1/1" xmlns:xsi="http://www.w3.org/2001/XMLSchema-instance" xsi:schemaLocation="http://www.topografix.com/GPX/1/1 http://www.topografix.com/GPX/1/1/gpx.xsd" version="1.1" creator="VisuGPX - https://www.visugpx.com">
  <metadata>
    <name>Cantal</name>
  </metadata>
  <trk>
    <name><![CDATA[Vous suivez puy Basset Bastide (Cantal)]]></name>
    <trkseg>
      <trkpt lat="45.09861" lon="2.5271">
        <ele>897</ele>
        <time>2020-09-14T08:16:03Z</time>
      </trkpt>
      <trkpt lat="45.09854" lon="2.52705">
        <ele>899</ele>
        <time>2020-09-14T08:16:11Z</time>
      </trkpt>
      <trkpt lat="45.09848" lon="2.52697">
        <ele>898</ele>
        <time>2020-09-14T08:16:18Z</time>
      </trkpt>
      <trkpt lat="45.09842" lon="2.52689">
        <ele>898</ele>
        <time>2020-09-14T08:16:24Z</time>
      </trkpt>
      <trkpt lat="45.09837" lon="2.52679">
        <ele>898</ele>
        <time>2020-09-14T08:16:30Z</time>
      </trkpt>
      <trkpt lat="45.09832" lon="2.5267">
        <ele>900</ele>
        <time>2020-09-14T08:16:37Z</time>
      </trkpt>
      <trkpt lat="45.0983" lon="2.52658">
        <ele>901</ele>
        <time>2020-09-14T08:16:45Z</time>
      </trkpt>
      <trkpt lat="45.0983" lon="2.52646">
        <ele>900</ele>
        <time>2020-09-14T08:16:51Z</time>
      </trkpt>
      <trkpt lat="45.09826" lon="2.52635">
        <ele>901</ele>
        <time>2020-09-14T08:16:59Z</time>
      </trkpt>
      <trkpt lat="45.0982" lon="2.52627">
        <ele>900</ele>
        <time>2020-09-14T08:17:06Z</time>
      </trkpt>
      <trkpt lat="45.09816" lon="2.52617">
        <ele>901</ele>
        <time>2020-09-14T08:17:13Z</time>
      </trkpt>
      <trkpt lat="45.0981" lon="2.52609">
        <ele>901</ele>
        <time>2020-09-14T08:17:20Z</time>
      </trkpt>
      <trkpt lat="45.09806" lon="2.52599">
        <ele>901</ele>
        <time>2020-09-14T08:17:26Z</time>
      </trkpt>
      <trkpt lat="45.09801" lon="2.5259">
        <ele>902</ele>
        <time>2020-09-14T08:17:33Z</time>
      </trkpt>
      <trkpt lat="45.09795" lon="2.52581">
        <ele>902</ele>
        <time>2020-09-14T08:17:40Z</time>
      </trkpt>
      <trkpt lat="45.0979" lon="2.52572">
        <ele>902</ele>
        <time>2020-09-14T08:17:46Z</time>
      </trkpt>
      <trkpt lat="45.09786" lon="2.52564">
        <ele>903</ele>
        <time>2020-09-14T08:17:52Z</time>
      </trkpt>
      <trkpt lat="45.09779" lon="2.52556">
        <ele>904</ele>
        <time>2020-09-14T08:17:58Z</time>
      </trkpt>
      <trkpt lat="45.09771" lon="2.52561">
        <ele>905</ele>
        <time>2020-09-14T08:18:07Z</time>
      </trkpt>
      <trkpt lat="45.09767" lon="2.52571">
        <ele>907</ele>
        <time>2020-09-14T08:18:13Z</time>
      </trkpt>
      <trkpt lat="45.09769" lon="2.52583">
        <ele>908</ele>
        <time>2020-09-14T08:18:21Z</time>
      </trkpt>
      <trkpt lat="45.09769" lon="2.52594">
        <ele>910</ele>
        <time>2020-09-14T08:18:29Z</time>
      </trkpt>
      <trkpt lat="45.09769" lon="2.52606">
        <ele>912</ele>
        <time>2020-09-14T08:18:36Z</time>
      </trkpt>
      <trkpt lat="45.09768" lon="2.52617">
        <ele>915</ele>
        <time>2020-09-14T08:18:43Z</time>
      </trkpt>
      <trkpt lat="45.09766" lon="2.52628">
        <ele>915</ele>
        <time>2020-09-14T08:18:50Z</time>
      </trkpt>
      <trkpt lat="45.09762" lon="2.52639">
        <ele>916</ele>
        <time>2020-09-14T08:18:57Z</time>
      </trkpt>
      <trkpt lat="45.09761" lon="2.52651">
        <ele>916</ele>
        <time>2020-09-14T08:19:04Z</time>
      </trkpt>
      <trkpt lat="45.09756" lon="2.5266">
        <ele>917</ele>
        <time>2020-09-14T08:19:09Z</time>
      </trkpt>
      <trkpt lat="45.09751" lon="2.5267">
        <ele>917</ele>
        <time>2020-09-14T08:19:16Z</time>
      </trkpt>
      <trkpt lat="45.09746" lon="2.5268">
        <ele>918</ele>
        <time>2020-09-14T08:19:36Z</time>
      </trkpt>
      <trkpt lat="45.0974" lon="2.52687">
        <ele>919</ele>
        <time>2020-09-14T08:19:44Z</time>
      </trkpt>
      <trkpt lat="45.09732" lon="2.52692">
        <ele>920</ele>
        <time>2020-09-14T08:19:51Z</time>
      </trkpt>
      <trkpt lat="45.09725" lon="2.52699">
        <ele>920</ele>
        <time>2020-09-14T08:19:59Z</time>
      </trkpt>
      <trkpt lat="45.09718" lon="2.52704">
        <ele>919</ele>
        <time>2020-09-14T08:20:07Z</time>
      </trkpt>
      <trkpt lat="45.09709" lon="2.52708">
        <ele>920</ele>
        <time>2020-09-14T08:20:14Z</time>
      </trkpt>
      <trkpt lat="45.09702" lon="2.52714">
        <ele>920</ele>
        <time>2020-09-14T08:20:21Z</time>
      </trkpt>
      <trkpt lat="45.09693" lon="2.52717">
        <ele>922</ele>
        <time>2020-09-14T08:20:29Z</time>
      </trkpt>
      <trkpt lat="45.09685" lon="2.52719">
        <ele>922</ele>
        <time>2020-09-14T08:20:36Z</time>
      </trkpt>
      <trkpt lat="45.09677" lon="2.52722">
        <ele>924</ele>
        <time>2020-09-14T08:20:44Z</time>
      </trkpt>
      <trkpt lat="45.09669" lon="2.52727">
        <ele>925</ele>
        <time>2020-09-14T08:20:52Z</time>
      </trkpt>
      <trkpt lat="45.09661" lon="2.52731">
        <ele>926</ele>
        <time>2020-09-14T08:21:00Z</time>
      </trkpt>
      <trkpt lat="45.09654" lon="2.52737">
        <ele>928</ele>
        <time>2020-09-14T08:21:07Z</time>
      </trkpt>
      <trkpt lat="45.09647" lon="2.52743">
        <ele>929</ele>
        <time>2020-09-14T08:21:13Z</time>
      </trkpt>
      <trkpt lat="45.09642" lon="2.52751">
        <ele>930</ele>
        <time>2020-09-14T08:21:20Z</time>
      </trkpt>
      <trkpt lat="45.09637" lon="2.52761">
        <ele>932</ele>
        <time>2020-09-14T08:21:27Z</time>
      </trkpt>
      <trkpt lat="45.09634" lon="2.52773">
        <ele>934</ele>
        <time>2020-09-14T08:21:34Z</time>
      </trkpt>
      <trkpt lat="45.09633" lon="2.52784">
        <ele>935</ele>
        <time>2020-09-14T08:21:42Z</time>
      </trkpt>
      <trkpt lat="45.09632" lon="2.52797">
        <ele>936</ele>
        <time>2020-09-14T08:21:51Z</time>
      </trkpt>
      <trkpt lat="45.09629" lon="2.52808">
        <ele>935</ele>
        <time>2020-09-14T08:21:58Z</time>
      </trkpt>
      <trkpt lat="45.09628" lon="2.52819">
        <ele>936</ele>
        <time>2020-09-14T08:22:05Z</time>
      </trkpt>
      <trkpt lat="45.09625" lon="2.52831">
        <ele>936</ele>
        <time>2020-09-14T08:22:13Z</time>
      </trkpt>
      <trkpt lat="45.09625" lon="2.52842">
        <ele>936</ele>
        <time>2020-09-14T08:22:19Z</time>
      </trkpt>
      <trkpt lat="45.09623" lon="2.52855">
        <ele>937</ele>
        <time>2020-09-14T08:22:26Z</time>
      </trkpt>
      <trkpt lat="45.09621" lon="2.52867">
        <ele>937</ele>
        <time>2020-09-14T08:22:34Z</time>
      </trkpt>
      <trkpt lat="45.09619" lon="2.52878">
        <ele>939</ele>
        <time>2020-09-14T08:22:40Z</time>
      </trkpt>
      <trkpt lat="45.09618" lon="2.52889">
        <ele>939</ele>
        <time>2020-09-14T08:22:47Z</time>
      </trkpt>
      <trkpt lat="45.09615" lon="2.52901">
        <ele>938</ele>
        <time>2020-09-14T08:22:54Z</time>
      </trkpt>
      <trkpt lat="45.09613" lon="2.52911">
        <ele>938</ele>
        <time>2020-09-14T08:23:00Z</time>
      </trkpt>
      <trkpt lat="45.09612" lon="2.52922">
        <ele>938</ele>
        <time>2020-09-14T08:23:06Z</time>
      </trkpt>
      <trkpt lat="45.09611" lon="2.52934">
        <ele>938</ele>
        <time>2020-09-14T08:23:12Z</time>
      </trkpt>
      <trkpt lat="45.0961" lon="2.52944">
        <ele>937</ele>
        <time>2020-09-14T08:23:18Z</time>
      </trkpt>
      <trkpt lat="45.09609" lon="2.52955">
        <ele>939</ele>
        <time>2020-09-14T08:23:24Z</time>
      </trkpt>
      <trkpt lat="45.09608" lon="2.52967">
        <ele>938</ele>
        <time>2020-09-14T08:23:30Z</time>
      </trkpt>
      <trkpt lat="45.09607" lon="2.52979">
        <ele>938</ele>
        <time>2020-09-14T08:23:39Z</time>
      </trkpt>
      <trkpt lat="45.09606" lon="2.52991">
        <ele>937</ele>
        <time>2020-09-14T08:23:46Z</time>
      </trkpt>
      <trkpt lat="45.09604" lon="2.53003">
        <ele>937</ele>
        <time>2020-09-14T08:23:53Z</time>
      </trkpt>
      <trkpt lat="45.09603" lon="2.53014">
        <ele>936</ele>
        <time>2020-09-14T08:23:59Z</time>
      </trkpt>
      <trkpt lat="45.09601" lon="2.53025">
        <ele>935</ele>
        <time>2020-09-14T08:24:06Z</time>
      </trkpt>
      <trkpt lat="45.09599" lon="2.53038">
        <ele>935</ele>
        <time>2020-09-14T08:24:12Z</time>
      </trkpt>
      <trkpt lat="45.09595" lon="2.53049">
        <ele>936</ele>
        <time>2020-09-14T08:24:19Z</time>
      </trkpt>
      <trkpt lat="45.09592" lon="2.53058">
        <ele>936</ele>
        <time>2020-09-14T08:24:25Z</time>
      </trkpt>
      <trkpt lat="45.09587" lon="2.53069">
        <ele>936</ele>
        <time>2020-09-14T08:24:33Z</time>
      </trkpt>
      <trkpt lat="45.09583" lon="2.5308">
        <ele>936</ele>
        <time>2020-09-14T08:24:40Z</time>
      </trkpt>
      <trkpt lat="45.09578" lon="2.5309">
        <ele>935</ele>
        <time>2020-09-14T08:24:47Z</time>
      </trkpt>
      <trkpt lat="45.09574" lon="2.53101">
        <ele>936</ele>
        <time>2020-09-14T08:24:54Z</time>
      </trkpt>
      <trkpt lat="45.09571" lon="2.53113">
        <ele>935</ele>
        <time>2020-09-14T08:25:02Z</time>
      </trkpt>
      <trkpt lat="45.09568" lon="2.53123">
        <ele>936</ele>
        <time>2020-09-14T08:25:09Z</time>
      </trkpt>
      <trkpt lat="45.09566" lon="2.53135">
        <ele>935</ele>
        <time>2020-09-14T08:25:17Z</time>
      </trkpt>
      <trkpt lat="45.09564" lon="2.53146">
        <ele>935</ele>
        <time>2020-09-14T08:25:23Z</time>
      </trkpt>
      <trkpt lat="45.09561" lon="2.53157">
        <ele>934</ele>
        <time>2020-09-14T08:25:28Z</time>
      </trkpt>
      <trkpt lat="45.09559" lon="2.53168">
        <ele>935</ele>
        <time>2020-09-14T08:25:33Z</time>
      </trkpt>
      <trkpt lat="45.09558" lon="2.53169">
        <ele>927</ele>
        <time>2020-09-14T08:25:45Z</time>
      </trkpt>
      <trkpt lat="45.09553" lon="2.53202">
        <ele>934</ele>
        <time>2020-09-14T08:25:50Z</time>
      </trkpt>
      <trkpt lat="45.09552" lon="2.53214">
        <ele>934</ele>
        <time>2020-09-14T08:26:00Z</time>
      </trkpt>
      <trkpt lat="45.09551" lon="2.53226">
        <ele>932</ele>
        <time>2020-09-14T08:26:07Z</time>
      </trkpt>
      <trkpt lat="45.09552" lon="2.53236">
        <ele>931</ele>
        <time>2020-09-14T08:26:14Z</time>
      </trkpt>
      <trkpt lat="45.09553" lon="2.53247">
        <ele>930</ele>
        <time>2020-09-14T08:26:20Z</time>
      </trkpt>
      <trkpt lat="45.09554" lon="2.53257">
        <ele>931</ele>
        <time>2020-09-14T08:26:25Z</time>
      </trkpt>
      <trkpt lat="45.09554" lon="2.53269">
        <ele>930</ele>
        <time>2020-09-14T08:26:31Z</time>
      </trkpt>
      <trkpt lat="45.09554" lon="2.5328">
        <ele>930</ele>
        <time>2020-09-14T08:26:37Z</time>
      </trkpt>
      <trkpt lat="45.09555" lon="2.53292">
        <ele>930</ele>
        <time>2020-09-14T08:26:44Z</time>
      </trkpt>
      <trkpt lat="45.09556" lon="2.53305">
        <ele>932</ele>
        <time>2020-09-14T08:26:51Z</time>
      </trkpt>
      <trkpt lat="45.09558" lon="2.53317">
        <ele>933</ele>
        <time>2020-09-14T08:26:59Z</time>
      </trkpt>
      <trkpt lat="45.0956" lon="2.53329">
        <ele>933</ele>
        <time>2020-09-14T08:27:06Z</time>
      </trkpt>
      <trkpt lat="45.09561" lon="2.53341">
        <ele>933</ele>
        <time>2020-09-14T08:27:28Z</time>
      </trkpt>
      <trkpt lat="45.09564" lon="2.53353">
        <ele>932</ele>
        <time>2020-09-14T08:27:35Z</time>
      </trkpt>
      <trkpt lat="45.09564" lon="2.53365">
        <ele>932</ele>
        <time>2020-09-14T08:27:42Z</time>
      </trkpt>
      <trkpt lat="45.09564" lon="2.53377">
        <ele>931</ele>
        <time>2020-09-14T08:27:48Z</time>
      </trkpt>
      <trkpt lat="45.09564" lon="2.53388">
        <ele>932</ele>
        <time>2020-09-14T08:27:54Z</time>
      </trkpt>
      <trkpt lat="45.09562" lon="2.53398">
        <ele>933</ele>
        <time>2020-09-14T08:28:00Z</time>
      </trkpt>
      <trkpt lat="45.0956" lon="2.5341">
        <ele>933</ele>
        <time>2020-09-14T08:28:07Z</time>
      </trkpt>
      <trkpt lat="45.09559" lon="2.53422">
        <ele>932</ele>
        <time>2020-09-14T08:28:14Z</time>
      </trkpt>
      <trkpt lat="45.09556" lon="2.53434">
        <ele>931</ele>
        <time>2020-09-14T08:28:21Z</time>
      </trkpt>
      <trkpt lat="45.09555" lon="2.53445">
        <ele>929</ele>
        <time>2020-09-14T08:28:28Z</time>
      </trkpt>
      <trkpt lat="45.09554" lon="2.53456">
        <ele>929</ele>
        <time>2020-09-14T08:28:34Z</time>
      </trkpt>
      <trkpt lat="45.09552" lon="2.53466">
        <ele>929</ele>
        <time>2020-09-14T08:28:40Z</time>
      </trkpt>
      <trkpt lat="45.0955" lon="2.53478">
        <ele>930</ele>
        <time>2020-09-14T08:28:47Z</time>
      </trkpt>
      <trkpt lat="45.09547" lon="2.53488">
        <ele>931</ele>
        <time>2020-09-14T08:28:59Z</time>
      </trkpt>
      <trkpt lat="45.09543" lon="2.53499">
        <ele>930</ele>
        <time>2020-09-14T08:29:06Z</time>
      </trkpt>
      <trkpt lat="45.0954" lon="2.5351">
        <ele>929</ele>
        <time>2020-09-14T08:29:13Z</time>
      </trkpt>
      <trkpt lat="45.09536" lon="2.53519">
        <ele>930</ele>
        <time>2020-09-14T08:29:21Z</time>
      </trkpt>
      <trkpt lat="45.0953" lon="2.53528">
        <ele>929</ele>
        <time>2020-09-14T08:29:29Z</time>
      </trkpt>
      <trkpt lat="45.09524" lon="2.53535">
        <ele>929</ele>
        <time>2020-09-14T08:29:34Z</time>
      </trkpt>
      <trkpt lat="45.09516" lon="2.53541">
        <ele>929</ele>
        <time>2020-09-14T08:29:42Z</time>
      </trkpt>
      <trkpt lat="45.0951" lon="2.53548">
        <ele>930</ele>
        <time>2020-09-14T08:29:52Z</time>
      </trkpt>
      <trkpt lat="45.09505" lon="2.53556">
        <ele>931</ele>
        <time>2020-09-14T08:29:57Z</time>
      </trkpt>
      <trkpt lat="45.095" lon="2.53566">
        <ele>931</ele>
        <time>2020-09-14T08:30:04Z</time>
      </trkpt>
      <trkpt lat="45.09493" lon="2.53573">
        <ele>932</ele>
        <time>2020-09-14T08:30:11Z</time>
      </trkpt>
      <trkpt lat="45.09487" lon="2.5358">
        <ele>932</ele>
        <time>2020-09-14T08:30:17Z</time>
      </trkpt>
      <trkpt lat="45.0948" lon="2.53586">
        <ele>934</ele>
        <time>2020-09-14T08:30:24Z</time>
      </trkpt>
      <trkpt lat="45.09473" lon="2.53593">
        <ele>933</ele>
        <time>2020-09-14T08:30:30Z</time>
      </trkpt>
      <trkpt lat="45.09466" lon="2.53599">
        <ele>935</ele>
        <time>2020-09-14T08:30:37Z</time>
      </trkpt>
      <trkpt lat="45.09459" lon="2.53607">
        <ele>936</ele>
        <time>2020-09-14T08:30:45Z</time>
      </trkpt>
      <trkpt lat="45.09452" lon="2.53614">
        <ele>937</ele>
        <time>2020-09-14T08:30:51Z</time>
      </trkpt>
      <trkpt lat="45.09448" lon="2.53624">
        <ele>936</ele>
        <time>2020-09-14T08:30:58Z</time>
      </trkpt>
      <trkpt lat="45.09443" lon="2.53633">
        <ele>937</ele>
        <time>2020-09-14T08:31:04Z</time>
      </trkpt>
      <trkpt lat="45.09438" lon="2.53644">
        <ele>937</ele>
        <time>2020-09-14T08:31:11Z</time>
      </trkpt>
      <trkpt lat="45.09435" lon="2.53654">
        <ele>940</ele>
        <time>2020-09-14T08:31:20Z</time>
      </trkpt>
      <trkpt lat="45.09435" lon="2.53666">
        <ele>943</ele>
        <time>2020-09-14T08:31:28Z</time>
      </trkpt>
      <trkpt lat="45.09433" lon="2.53678">
        <ele>942</ele>
        <time>2020-09-14T08:31:35Z</time>
      </trkpt>
      <trkpt lat="45.09432" lon="2.5369">
        <ele>945</ele>
        <time>2020-09-14T08:31:46Z</time>
      </trkpt>
      <trkpt lat="45.09432" lon="2.53701">
        <ele>943</ele>
        <time>2020-09-14T08:31:52Z</time>
      </trkpt>
      <trkpt lat="45.09429" lon="2.53712">
        <ele>941</ele>
        <time>2020-09-14T08:31:59Z</time>
      </trkpt>
      <trkpt lat="45.09424" lon="2.53722">
        <ele>943</ele>
        <time>2020-09-14T08:32:06Z</time>
      </trkpt>
      <trkpt lat="45.09421" lon="2.53733">
        <ele>943</ele>
        <time>2020-09-14T08:32:14Z</time>
      </trkpt>
      <trkpt lat="45.09417" lon="2.53743">
        <ele>943</ele>
        <time>2020-09-14T08:32:20Z</time>
      </trkpt>
      <trkpt lat="45.09412" lon="2.53752">
        <ele>943</ele>
        <time>2020-09-14T08:32:26Z</time>
      </trkpt>
      <trkpt lat="45.0941" lon="2.53762">
        <ele>944</ele>
        <time>2020-09-14T08:32:33Z</time>
      </trkpt>
      <trkpt lat="45.09407" lon="2.53772">
        <ele>943</ele>
        <time>2020-09-14T08:32:40Z</time>
      </trkpt>
      <trkpt lat="45.09404" lon="2.53783">
        <ele>945</ele>
        <time>2020-09-14T08:32:46Z</time>
      </trkpt>
      <trkpt lat="45.09405" lon="2.53795">
        <ele>945</ele>
        <time>2020-09-14T08:32:52Z</time>
      </trkpt>
      <trkpt lat="45.09403" lon="2.53807">
        <ele>945</ele>
        <time>2020-09-14T08:32:59Z</time>
      </trkpt>
      <trkpt lat="45.09399" lon="2.53818">
        <ele>946</ele>
        <time>2020-09-14T08:33:04Z</time>
      </trkpt>
      <trkpt lat="45.09397" lon="2.53829">
        <ele>948</ele>
        <time>2020-09-14T08:33:10Z</time>
      </trkpt>
      <trkpt lat="45.094" lon="2.5384">
        <ele>948</ele>
        <time>2020-09-14T08:33:15Z</time>
      </trkpt>
      <trkpt lat="45.09402" lon="2.5385">
        <ele>950</ele>
        <time>2020-09-14T08:33:22Z</time>
      </trkpt>
      <trkpt lat="45.09402" lon="2.53862">
        <ele>951</ele>
        <time>2020-09-14T08:33:29Z</time>
      </trkpt>
      <trkpt lat="45.09405" lon="2.53874">
        <ele>952</ele>
        <time>2020-09-14T08:33:35Z</time>
      </trkpt>
      <trkpt lat="45.09407" lon="2.53885">
        <ele>953</ele>
        <time>2020-09-14T08:33:41Z</time>
      </trkpt>
      <trkpt lat="45.09408" lon="2.53896">
        <ele>952</ele>
        <time>2020-09-14T08:33:47Z</time>
      </trkpt>
      <trkpt lat="45.09411" lon="2.53908">
        <ele>952</ele>
        <time>2020-09-14T08:33:55Z</time>
      </trkpt>
      <trkpt lat="45.09415" lon="2.5392">
        <ele>954</ele>
        <time>2020-09-14T08:34:01Z</time>
      </trkpt>
      <trkpt lat="45.09418" lon="2.53931">
        <ele>955</ele>
        <time>2020-09-14T08:34:09Z</time>
      </trkpt>
      <trkpt lat="45.0942" lon="2.5394">
        <ele>956</ele>
        <time>2020-09-14T08:34:14Z</time>
      </trkpt>
      <trkpt lat="45.09423" lon="2.53951">
        <ele>957</ele>
        <time>2020-09-14T08:34:21Z</time>
      </trkpt>
      <trkpt lat="45.09426" lon="2.53962">
        <ele>958</ele>
        <time>2020-09-14T08:34:28Z</time>
      </trkpt>
      <trkpt lat="45.09429" lon="2.53972">
        <ele>957</ele>
        <time>2020-09-14T08:34:34Z</time>
      </trkpt>
      <trkpt lat="45.09429" lon="2.53985">
        <ele>958</ele>
        <time>2020-09-14T08:34:41Z</time>
      </trkpt>
      <trkpt lat="45.09429" lon="2.53996">
        <ele>959</ele>
        <time>2020-09-14T08:34:48Z</time>
      </trkpt>
      <trkpt lat="45.09429" lon="2.54008">
        <ele>960</ele>
        <time>2020-09-14T08:34:56Z</time>
      </trkpt>
      <trkpt lat="45.09426" lon="2.54019">
        <ele>962</ele>
        <time>2020-09-14T08:35:03Z</time>
      </trkpt>
      <trkpt lat="45.09425" lon="2.54031">
        <ele>961</ele>
        <time>2020-09-14T08:35:09Z</time>
      </trkpt>
      <trkpt lat="45.09423" lon="2.54042">
        <ele>960</ele>
        <time>2020-09-14T08:35:15Z</time>
      </trkpt>
      <trkpt lat="45.09419" lon="2.54052">
        <ele>959</ele>
        <time>2020-09-14T08:35:23Z</time>
      </trkpt>
      <trkpt lat="45.09416" lon="2.54062">
        <ele>960</ele>
        <time>2020-09-14T08:35:29Z</time>
      </trkpt>
      <trkpt lat="45.09413" lon="2.54072">
        <ele>961</ele>
        <time>2020-09-14T08:35:35Z</time>
      </trkpt>
      <trkpt lat="45.09409" lon="2.54084">
        <ele>962</ele>
        <time>2020-09-14T08:35:42Z</time>
      </trkpt>
      <trkpt lat="45.0941" lon="2.54096">
        <ele>962</ele>
        <time>2020-09-14T08:35:48Z</time>
      </trkpt>
      <trkpt lat="45.0941" lon="2.54108">
        <ele>961</ele>
        <time>2020-09-14T08:35:54Z</time>
      </trkpt>
      <trkpt lat="45.09409" lon="2.54119">
        <ele>963</ele>
        <time>2020-09-14T08:36:00Z</time>
      </trkpt>
      <trkpt lat="45.09409" lon="2.54131">
        <ele>963</ele>
        <time>2020-09-14T08:36:06Z</time>
      </trkpt>
      <trkpt lat="45.09407" lon="2.54141">
        <ele>963</ele>
        <time>2020-09-14T08:36:12Z</time>
      </trkpt>
      <trkpt lat="45.09405" lon="2.54153">
        <ele>962</ele>
        <time>2020-09-14T08:36:18Z</time>
      </trkpt>
      <trkpt lat="45.09404" lon="2.54165">
        <ele>963</ele>
        <time>2020-09-14T08:36:25Z</time>
      </trkpt>
      <trkpt lat="45.09402" lon="2.54178">
        <ele>962</ele>
        <time>2020-09-14T08:36:31Z</time>
      </trkpt>
      <trkpt lat="45.09402" lon="2.5419">
        <ele>963</ele>
        <time>2020-09-14T08:36:38Z</time>
      </trkpt>
      <trkpt lat="45.094" lon="2.54202">
        <ele>963</ele>
        <time>2020-09-14T08:36:47Z</time>
      </trkpt>
      <trkpt lat="45.094" lon="2.54213">
        <ele>964</ele>
        <time>2020-09-14T08:36:53Z</time>
      </trkpt>
      <trkpt lat="45.09398" lon="2.54226">
        <ele>967</ele>
        <time>2020-09-14T08:37:01Z</time>
      </trkpt>
      <trkpt lat="45.09396" lon="2.54236">
        <ele>967</ele>
        <time>2020-09-14T08:37:08Z</time>
      </trkpt>
      <trkpt lat="45.09395" lon="2.54246">
        <ele>967</ele>
        <time>2020-09-14T08:37:13Z</time>
      </trkpt>
      <trkpt lat="45.09394" lon="2.54259">
        <ele>968</ele>
        <time>2020-09-14T08:37:20Z</time>
      </trkpt>
      <trkpt lat="45.09396" lon="2.54271">
        <ele>968</ele>
        <time>2020-09-14T08:37:26Z</time>
      </trkpt>
      <trkpt lat="45.09397" lon="2.54282">
        <ele>969</ele>
        <time>2020-09-14T08:37:34Z</time>
      </trkpt>
      <trkpt lat="45.09399" lon="2.54294">
        <ele>969</ele>
        <time>2020-09-14T08:37:39Z</time>
      </trkpt>
      <trkpt lat="45.09403" lon="2.54306">
        <ele>969</ele>
        <time>2020-09-14T08:37:47Z</time>
      </trkpt>
      <trkpt lat="45.09403" lon="2.54318">
        <ele>970</ele>
        <time>2020-09-14T08:37:55Z</time>
      </trkpt>
      <trkpt lat="45.094" lon="2.54329">
        <ele>971</ele>
        <time>2020-09-14T08:38:03Z</time>
      </trkpt>
      <trkpt lat="45.09399" lon="2.54342">
        <ele>972</ele>
        <time>2020-09-14T08:38:10Z</time>
      </trkpt>
      <trkpt lat="45.09398" lon="2.54354">
        <ele>973</ele>
        <time>2020-09-14T08:38:18Z</time>
      </trkpt>
      <trkpt lat="45.09396" lon="2.54366">
        <ele>973</ele>
        <time>2020-09-14T08:38:25Z</time>
      </trkpt>
      <trkpt lat="45.09393" lon="2.54376">
        <ele>974</ele>
        <time>2020-09-14T08:38:34Z</time>
      </trkpt>
      <trkpt lat="45.09387" lon="2.54383">
        <ele>980</ele>
        <time>2020-09-14T08:38:40Z</time>
      </trkpt>
      <trkpt lat="45.09379" lon="2.54388">
        <ele>986</ele>
        <time>2020-09-14T08:38:47Z</time>
      </trkpt>
      <trkpt lat="45.09373" lon="2.54396">
        <ele>985</ele>
        <time>2020-09-14T08:38:54Z</time>
      </trkpt>
      <trkpt lat="45.09368" lon="2.54406">
        <ele>982</ele>
        <time>2020-09-14T08:39:02Z</time>
      </trkpt>
      <trkpt lat="45.09363" lon="2.54417">
        <ele>981</ele>
        <time>2020-09-14T08:39:10Z</time>
      </trkpt>
      <trkpt lat="45.0936" lon="2.54428">
        <ele>982</ele>
        <time>2020-09-14T08:39:18Z</time>
      </trkpt>
      <trkpt lat="45.09359" lon="2.54439">
        <ele>981</ele>
        <time>2020-09-14T08:39:26Z</time>
      </trkpt>
      <trkpt lat="45.09357" lon="2.54452">
        <ele>984</ele>
        <time>2020-09-14T08:39:33Z</time>
      </trkpt>
      <trkpt lat="45.09355" lon="2.54463">
        <ele>984</ele>
        <time>2020-09-14T08:39:42Z</time>
      </trkpt>
      <trkpt lat="45.09348" lon="2.54472">
        <ele>984</ele>
        <time>2020-09-14T08:39:49Z</time>
      </trkpt>
      <trkpt lat="45.09345" lon="2.54482">
        <ele>985</ele>
        <time>2020-09-14T08:39:57Z</time>
      </trkpt>
      <trkpt lat="45.09339" lon="2.54491">
        <ele>985</ele>
        <time>2020-09-14T08:40:05Z</time>
      </trkpt>
      <trkpt lat="45.09334" lon="2.54501">
        <ele>987</ele>
        <time>2020-09-14T08:40:13Z</time>
      </trkpt>
      <trkpt lat="45.09329" lon="2.5451">
        <ele>988</ele>
        <time>2020-09-14T08:40:20Z</time>
      </trkpt>
      <trkpt lat="45.09325" lon="2.5452">
        <ele>989</ele>
        <time>2020-09-14T08:40:27Z</time>
      </trkpt>
      <trkpt lat="45.09323" lon="2.54531">
        <ele>990</ele>
        <time>2020-09-14T08:40:34Z</time>
      </trkpt>
      <trkpt lat="45.09321" lon="2.54542">
        <ele>991</ele>
        <time>2020-09-14T08:40:40Z</time>
      </trkpt>
      <trkpt lat="45.09319" lon="2.54554">
        <ele>992</ele>
        <time>2020-09-14T08:40:49Z</time>
      </trkpt>
      <trkpt lat="45.09318" lon="2.54565">
        <ele>992</ele>
        <time>2020-09-14T08:40:56Z</time>
      </trkpt>
      <trkpt lat="45.09318" lon="2.54577">
        <ele>992</ele>
        <time>2020-09-14T08:41:04Z</time>
      </trkpt>
      <trkpt lat="45.09317" lon="2.54588">
        <ele>993</ele>
        <time>2020-09-14T08:41:12Z</time>
      </trkpt>
      <trkpt lat="45.09315" lon="2.546">
        <ele>994</ele>
        <time>2020-09-14T08:41:19Z</time>
      </trkpt>
      <trkpt lat="45.09314" lon="2.54612">
        <ele>995</ele>
        <time>2020-09-14T08:41:26Z</time>
      </trkpt>
      <trkpt lat="45.09314" lon="2.54624">
        <ele>997</ele>
        <time>2020-09-14T08:41:33Z</time>
      </trkpt>
      <trkpt lat="45.09314" lon="2.54636">
        <ele>998</ele>
        <time>2020-09-14T08:41:42Z</time>
      </trkpt>
      <trkpt lat="45.09316" lon="2.54648">
        <ele>998</ele>
        <time>2020-09-14T08:41:49Z</time>
      </trkpt>
      <trkpt lat="45.09319" lon="2.5466">
        <ele>999</ele>
        <time>2020-09-14T08:41:56Z</time>
      </trkpt>
      <trkpt lat="45.09322" lon="2.54671">
        <ele>1000</ele>
        <time>2020-09-14T08:42:04Z</time>
      </trkpt>
      <trkpt lat="45.09325" lon="2.54682">
        <ele>1000</ele>
        <time>2020-09-14T08:42:12Z</time>
      </trkpt>
      <trkpt lat="45.09329" lon="2.54693">
        <ele>1004</ele>
        <time>2020-09-14T08:42:21Z</time>
      </trkpt>
      <trkpt lat="45.09334" lon="2.54703">
        <ele>1005</ele>
        <time>2020-09-14T08:42:30Z</time>
      </trkpt>
      <trkpt lat="45.09336" lon="2.54715">
        <ele>1006</ele>
        <time>2020-09-14T08:42:38Z</time>
      </trkpt>
      <trkpt lat="45.09338" lon="2.54726">
        <ele>1007</ele>
        <time>2020-09-14T08:42:45Z</time>
      </trkpt>
      <trkpt lat="45.09339" lon="2.54739">
        <ele>1005</ele>
        <time>2020-09-14T08:42:52Z</time>
      </trkpt>
      <trkpt lat="45.09338" lon="2.5475">
        <ele>1004</ele>
        <time>2020-09-14T08:42:58Z</time>
      </trkpt>
      <trkpt lat="45.09338" lon="2.54762">
        <ele>1005</ele>
        <time>2020-09-14T08:43:06Z</time>
      </trkpt>
      <trkpt lat="45.09336" lon="2.54774">
        <ele>1005</ele>
        <time>2020-09-14T08:43:14Z</time>
      </trkpt>
      <trkpt lat="45.09335" lon="2.54785">
        <ele>1005</ele>
        <time>2020-09-14T08:43:21Z</time>
      </trkpt>
      <trkpt lat="45.09334" lon="2.54797">
        <ele>1005</ele>
        <time>2020-09-14T08:43:27Z</time>
      </trkpt>
      <trkpt lat="45.09332" lon="2.54808">
        <ele>1005</ele>
        <time>2020-09-14T08:43:32Z</time>
      </trkpt>
      <trkpt lat="45.09329" lon="2.54818">
        <ele>1007</ele>
        <time>2020-09-14T08:43:44Z</time>
      </trkpt>
      <trkpt lat="45.09325" lon="2.5483">
        <ele>1008</ele>
        <time>2020-09-14T08:43:51Z</time>
      </trkpt>
      <trkpt lat="45.09322" lon="2.54842">
        <ele>1007</ele>
        <time>2020-09-14T08:43:58Z</time>
      </trkpt>
      <trkpt lat="45.09318" lon="2.54852">
        <ele>1007</ele>
        <time>2020-09-14T08:44:07Z</time>
      </trkpt>
      <trkpt lat="45.09318" lon="2.54863">
        <ele>1007</ele>
        <time>2020-09-14T08:44:12Z</time>
      </trkpt>
      <trkpt lat="45.09316" lon="2.54875">
        <ele>1007</ele>
        <time>2020-09-14T08:44:18Z</time>
      </trkpt>
      <trkpt lat="45.09316" lon="2.54888">
        <ele>1007</ele>
        <time>2020-09-14T08:44:24Z</time>
      </trkpt>
      <trkpt lat="45.09317" lon="2.54899">
        <ele>1007</ele>
        <time>2020-09-14T08:44:31Z</time>
      </trkpt>
      <trkpt lat="45.09317" lon="2.54912">
        <ele>1007</ele>
        <time>2020-09-14T08:44:38Z</time>
      </trkpt>
      <trkpt lat="45.09315" lon="2.54924">
        <ele>1008</ele>
        <time>2020-09-14T08:44:45Z</time>
      </trkpt>
      <trkpt lat="45.09309" lon="2.54933">
        <ele>1007</ele>
        <time>2020-09-14T08:44:51Z</time>
      </trkpt>
      <trkpt lat="45.09304" lon="2.54942">
        <ele>1005</ele>
        <time>2020-09-14T08:44:57Z</time>
      </trkpt>
      <trkpt lat="45.09297" lon="2.5495">
        <ele>1004</ele>
        <time>2020-09-14T08:45:04Z</time>
      </trkpt>
      <trkpt lat="45.09293" lon="2.54961">
        <ele>1004</ele>
        <time>2020-09-14T08:45:11Z</time>
      </trkpt>
      <trkpt lat="45.09289" lon="2.54972">
        <ele>1004</ele>
        <time>2020-09-14T08:45:18Z</time>
      </trkpt>
      <trkpt lat="45.09285" lon="2.54983">
        <ele>1002</ele>
        <time>2020-09-14T08:45:25Z</time>
      </trkpt>
      <trkpt lat="45.09281" lon="2.54993">
        <ele>1002</ele>
        <time>2020-09-14T08:45:37Z</time>
      </trkpt>
      <trkpt lat="45.09276" lon="2.55003">
        <ele>1002</ele>
        <time>2020-09-14T08:45:43Z</time>
      </trkpt>
      <trkpt lat="45.09273" lon="2.55014">
        <ele>1001</ele>
        <time>2020-09-14T08:45:50Z</time>
      </trkpt>
      <trkpt lat="45.09269" lon="2.55025">
        <ele>1001</ele>
        <time>2020-09-14T08:45:57Z</time>
      </trkpt>
      <trkpt lat="45.09266" lon="2.55034">
        <ele>1001</ele>
        <time>2020-09-14T08:46:02Z</time>
      </trkpt>
      <trkpt lat="45.09263" lon="2.55045">
        <ele>1000</ele>
        <time>2020-09-14T08:46:09Z</time>
      </trkpt>
      <trkpt lat="45.0926" lon="2.55055">
        <ele>1000</ele>
        <time>2020-09-14T08:46:15Z</time>
      </trkpt>
      <trkpt lat="45.09259" lon="2.55067">
        <ele>999</ele>
        <time>2020-09-14T08:46:22Z</time>
      </trkpt>
      <trkpt lat="45.09257" lon="2.55078">
        <ele>999</ele>
        <time>2020-09-14T08:46:27Z</time>
      </trkpt>
      <trkpt lat="45.09257" lon="2.5509">
        <ele>998</ele>
        <time>2020-09-14T08:46:34Z</time>
      </trkpt>
      <trkpt lat="45.09258" lon="2.55103">
        <ele>998</ele>
        <time>2020-09-14T08:46:41Z</time>
      </trkpt>
      <trkpt lat="45.0926" lon="2.55115">
        <ele>997</ele>
        <time>2020-09-14T08:46:48Z</time>
      </trkpt>
      <trkpt lat="45.09263" lon="2.55126">
        <ele>997</ele>
        <time>2020-09-14T08:46:55Z</time>
      </trkpt>
      <trkpt lat="45.09267" lon="2.55136">
        <ele>997</ele>
        <time>2020-09-14T08:47:01Z</time>
      </trkpt>
      <trkpt lat="45.0927" lon="2.55147">
        <ele>996</ele>
        <time>2020-09-14T08:47:08Z</time>
      </trkpt>
      <trkpt lat="45.09273" lon="2.55159">
        <ele>995</ele>
        <time>2020-09-14T08:47:15Z</time>
      </trkpt>
      <trkpt lat="45.09275" lon="2.55169">
        <ele>995</ele>
        <time>2020-09-14T08:47:21Z</time>
      </trkpt>
      <trkpt lat="45.09277" lon="2.55181">
        <ele>995</ele>
        <time>2020-09-14T08:47:27Z</time>
      </trkpt>
      <trkpt lat="45.09278" lon="2.55192">
        <ele>994</ele>
        <time>2020-09-14T08:47:33Z</time>
      </trkpt>
      <trkpt lat="45.0928" lon="2.55205">
        <ele>994</ele>
        <time>2020-09-14T08:47:40Z</time>
      </trkpt>
      <trkpt lat="45.09282" lon="2.55216">
        <ele>993</ele>
        <time>2020-09-14T08:47:47Z</time>
      </trkpt>
      <trkpt lat="45.09283" lon="2.55225">
        <ele>993</ele>
        <time>2020-09-14T08:47:52Z</time>
      </trkpt>
      <trkpt lat="45.09285" lon="2.55236">
        <ele>993</ele>
        <time>2020-09-14T08:47:58Z</time>
      </trkpt>
      <trkpt lat="45.09286" lon="2.55246">
        <ele>993</ele>
        <time>2020-09-14T08:48:04Z</time>
      </trkpt>
      <trkpt lat="45.09289" lon="2.55257">
        <ele>992</ele>
        <time>2020-09-14T08:48:10Z</time>
      </trkpt>
      <trkpt lat="45.09293" lon="2.55268">
        <ele>991</ele>
        <time>2020-09-14T08:48:17Z</time>
      </trkpt>
      <trkpt lat="45.09296" lon="2.55275">
        <ele>990</ele>
        <time>2020-09-14T08:48:22Z</time>
      </trkpt>
      <trkpt lat="45.09301" lon="2.55285">
        <ele>989</ele>
        <time>2020-09-14T08:48:29Z</time>
      </trkpt>
      <trkpt lat="45.09307" lon="2.55295">
        <ele>990</ele>
        <time>2020-09-14T08:48:36Z</time>
      </trkpt>
      <trkpt lat="45.09312" lon="2.55303">
        <ele>990</ele>
        <time>2020-09-14T08:48:42Z</time>
      </trkpt>
      <trkpt lat="45.09317" lon="2.55312">
        <ele>990</ele>
        <time>2020-09-14T08:48:47Z</time>
      </trkpt>
      <trkpt lat="45.09322" lon="2.55322">
        <ele>989</ele>
        <time>2020-09-14T08:48:54Z</time>
      </trkpt>
      <trkpt lat="45.09328" lon="2.55332">
        <ele>988</ele>
        <time>2020-09-14T08:49:01Z</time>
      </trkpt>
      <trkpt lat="45.0933" lon="2.5534">
        <ele>987</ele>
        <time>2020-09-14T08:49:07Z</time>
      </trkpt>
      <trkpt lat="45.09333" lon="2.55351">
        <ele>987</ele>
        <time>2020-09-14T08:49:12Z</time>
      </trkpt>
      <trkpt lat="45.09336" lon="2.55363">
        <ele>986</ele>
        <time>2020-09-14T08:49:20Z</time>
      </trkpt>
      <trkpt lat="45.09337" lon="2.55375">
        <ele>985</ele>
        <time>2020-09-14T08:49:26Z</time>
      </trkpt>
      <trkpt lat="45.09336" lon="2.55386">
        <ele>985</ele>
        <time>2020-09-14T08:49:32Z</time>
      </trkpt>
      <trkpt lat="45.09332" lon="2.55397">
        <ele>985</ele>
        <time>2020-09-14T08:49:37Z</time>
      </trkpt>
      <trkpt lat="45.09329" lon="2.55408">
        <ele>984</ele>
        <time>2020-09-14T08:49:43Z</time>
      </trkpt>
      <trkpt lat="45.09325" lon="2.55418">
        <ele>983</ele>
        <time>2020-09-14T08:49:49Z</time>
      </trkpt>
      <trkpt lat="45.09321" lon="2.55429">
        <ele>983</ele>
        <time>2020-09-14T08:49:56Z</time>
      </trkpt>
      <trkpt lat="45.09319" lon="2.5544">
        <ele>983</ele>
        <time>2020-09-14T08:50:02Z</time>
      </trkpt>
      <trkpt lat="45.09319" lon="2.55452">
        <ele>982</ele>
        <time>2020-09-14T08:50:08Z</time>
      </trkpt>
      <trkpt lat="45.09318" lon="2.55463">
        <ele>981</ele>
        <time>2020-09-14T08:50:14Z</time>
      </trkpt>
      <trkpt lat="45.09319" lon="2.55474">
        <ele>980</ele>
        <time>2020-09-14T08:50:20Z</time>
      </trkpt>
      <trkpt lat="45.0932" lon="2.55486">
        <ele>980</ele>
        <time>2020-09-14T08:50:26Z</time>
      </trkpt>
      <trkpt lat="45.0932" lon="2.55498">
        <ele>980</ele>
        <time>2020-09-14T08:50:32Z</time>
      </trkpt>
      <trkpt lat="45.0932" lon="2.55509">
        <ele>979</ele>
        <time>2020-09-14T08:50:38Z</time>
      </trkpt>
      <trkpt lat="45.09321" lon="2.5552">
        <ele>978</ele>
        <time>2020-09-14T08:50:43Z</time>
      </trkpt>
      <trkpt lat="45.09322" lon="2.55531">
        <ele>977</ele>
        <time>2020-09-14T08:50:49Z</time>
      </trkpt>
      <trkpt lat="45.09322" lon="2.55543">
        <ele>977</ele>
        <time>2020-09-14T08:50:55Z</time>
      </trkpt>
      <trkpt lat="45.09323" lon="2.55555">
        <ele>977</ele>
        <time>2020-09-14T08:51:01Z</time>
      </trkpt>
      <trkpt lat="45.09322" lon="2.55568">
        <ele>976</ele>
        <time>2020-09-14T08:51:08Z</time>
      </trkpt>
      <trkpt lat="45.09321" lon="2.5558">
        <ele>975</ele>
        <time>2020-09-14T08:51:14Z</time>
      </trkpt>
      <trkpt lat="45.0932" lon="2.55592">
        <ele>975</ele>
        <time>2020-09-14T08:51:20Z</time>
      </trkpt>
      <trkpt lat="45.09318" lon="2.55603">
        <ele>975</ele>
        <time>2020-09-14T08:51:26Z</time>
      </trkpt>
      <trkpt lat="45.09315" lon="2.55613">
        <ele>973</ele>
        <time>2020-09-14T08:51:32Z</time>
      </trkpt>
      <trkpt lat="45.09313" lon="2.55625">
        <ele>972</ele>
        <time>2020-09-14T08:51:39Z</time>
      </trkpt>
      <trkpt lat="45.0931" lon="2.55636">
        <ele>973</ele>
        <time>2020-09-14T08:51:45Z</time>
      </trkpt>
      <trkpt lat="45.09309" lon="2.55648">
        <ele>973</ele>
        <time>2020-09-14T08:51:52Z</time>
      </trkpt>
      <trkpt lat="45.09307" lon="2.5566">
        <ele>972</ele>
        <time>2020-09-14T08:51:59Z</time>
      </trkpt>
      <trkpt lat="45.09306" lon="2.55671">
        <ele>971</ele>
        <time>2020-09-14T08:52:05Z</time>
      </trkpt>
      <trkpt lat="45.09304" lon="2.55683">
        <ele>971</ele>
        <time>2020-09-14T08:52:11Z</time>
      </trkpt>
      <trkpt lat="45.09303" lon="2.55694">
        <ele>971</ele>
        <time>2020-09-14T08:52:17Z</time>
      </trkpt>
      <trkpt lat="45.093" lon="2.55706">
        <ele>971</ele>
        <time>2020-09-14T08:52:23Z</time>
      </trkpt>
      <trkpt lat="45.09299" lon="2.55718">
        <ele>971</ele>
        <time>2020-09-14T08:52:30Z</time>
      </trkpt>
      <trkpt lat="45.09297" lon="2.55731">
        <ele>971</ele>
        <time>2020-09-14T08:52:36Z</time>
      </trkpt>
      <trkpt lat="45.09296" lon="2.55742">
        <ele>970</ele>
        <time>2020-09-14T08:52:42Z</time>
      </trkpt>
      <trkpt lat="45.09294" lon="2.55753">
        <ele>968</ele>
        <time>2020-09-14T08:52:48Z</time>
      </trkpt>
      <trkpt lat="45.09293" lon="2.55765">
        <ele>966</ele>
        <time>2020-09-14T08:52:54Z</time>
      </trkpt>
      <trkpt lat="45.09291" lon="2.55777">
        <ele>966</ele>
        <time>2020-09-14T08:53:01Z</time>
      </trkpt>
      <trkpt lat="45.09289" lon="2.55789">
        <ele>965</ele>
        <time>2020-09-14T08:53:07Z</time>
      </trkpt>
      <trkpt lat="45.09287" lon="2.55799">
        <ele>965</ele>
        <time>2020-09-14T08:53:12Z</time>
      </trkpt>
      <trkpt lat="45.09285" lon="2.55811">
        <ele>966</ele>
        <time>2020-09-14T08:53:18Z</time>
      </trkpt>
      <trkpt lat="45.09282" lon="2.55823">
        <ele>965</ele>
        <time>2020-09-14T08:53:25Z</time>
      </trkpt>
      <trkpt lat="45.0928" lon="2.55834">
        <ele>964</ele>
        <time>2020-09-14T08:53:30Z</time>
      </trkpt>
      <trkpt lat="45.09279" lon="2.55845">
        <ele>964</ele>
        <time>2020-09-14T08:53:37Z</time>
      </trkpt>
      <trkpt lat="45.09276" lon="2.55855">
        <ele>964</ele>
        <time>2020-09-14T08:53:42Z</time>
      </trkpt>
      <trkpt lat="45.09273" lon="2.55866">
        <ele>963</ele>
        <time>2020-09-14T08:53:49Z</time>
      </trkpt>
      <trkpt lat="45.09271" lon="2.55877">
        <ele>963</ele>
        <time>2020-09-14T08:53:55Z</time>
      </trkpt>
      <trkpt lat="45.09269" lon="2.55888">
        <ele>963</ele>
        <time>2020-09-14T08:54:01Z</time>
      </trkpt>
      <trkpt lat="45.09267" lon="2.55899">
        <ele>962</ele>
        <time>2020-09-14T08:54:07Z</time>
      </trkpt>
      <trkpt lat="45.09264" lon="2.55911">
        <ele>961</ele>
        <time>2020-09-14T08:54:13Z</time>
      </trkpt>
      <trkpt lat="45.09261" lon="2.55921">
        <ele>960</ele>
        <time>2020-09-14T08:54:19Z</time>
      </trkpt>
      <trkpt lat="45.09259" lon="2.55933">
        <ele>960</ele>
        <time>2020-09-14T08:54:26Z</time>
      </trkpt>
      <trkpt lat="45.09257" lon="2.55945">
        <ele>960</ele>
        <time>2020-09-14T08:54:32Z</time>
      </trkpt>
      <trkpt lat="45.09255" lon="2.55956">
        <ele>960</ele>
        <time>2020-09-14T08:54:38Z</time>
      </trkpt>
      <trkpt lat="45.09254" lon="2.55967">
        <ele>958</ele>
        <time>2020-09-14T08:54:45Z</time>
      </trkpt>
      <trkpt lat="45.09252" lon="2.55979">
        <ele>957</ele>
        <time>2020-09-14T08:54:52Z</time>
      </trkpt>
      <trkpt lat="45.09252" lon="2.5599">
        <ele>958</ele>
        <time>2020-09-14T08:54:58Z</time>
      </trkpt>
      <trkpt lat="45.0925" lon="2.56001">
        <ele>957</ele>
        <time>2020-09-14T08:55:04Z</time>
      </trkpt>
      <trkpt lat="45.09249" lon="2.56013">
        <ele>957</ele>
        <time>2020-09-14T08:55:11Z</time>
      </trkpt>
      <trkpt lat="45.09249" lon="2.56023">
        <ele>957</ele>
        <time>2020-09-14T08:55:17Z</time>
      </trkpt>
      <trkpt lat="45.09249" lon="2.56036">
        <ele>958</ele>
        <time>2020-09-14T08:55:24Z</time>
      </trkpt>
      <trkpt lat="45.09251" lon="2.56048">
        <ele>957</ele>
        <time>2020-09-14T08:55:31Z</time>
      </trkpt>
      <trkpt lat="45.09252" lon="2.5606">
        <ele>956</ele>
        <time>2020-09-14T08:55:39Z</time>
      </trkpt>
      <trkpt lat="45.09251" lon="2.56072">
        <ele>956</ele>
        <time>2020-09-14T08:55:46Z</time>
      </trkpt>
      <trkpt lat="45.09249" lon="2.56083">
        <ele>956</ele>
        <time>2020-09-14T08:55:53Z</time>
      </trkpt>
      <trkpt lat="45.09248" lon="2.56096">
        <ele>956</ele>
        <time>2020-09-14T08:56:01Z</time>
      </trkpt>
      <trkpt lat="45.09243" lon="2.56105">
        <ele>959</ele>
        <time>2020-09-14T08:56:19Z</time>
      </trkpt>
      <trkpt lat="45.09241" lon="2.56116">
        <ele>959</ele>
        <time>2020-09-14T08:56:24Z</time>
      </trkpt>
      <trkpt lat="45.09241" lon="2.56127">
        <ele>959</ele>
        <time>2020-09-14T08:56:31Z</time>
      </trkpt>
      <trkpt lat="45.09241" lon="2.5614">
        <ele>958</ele>
        <time>2020-09-14T08:56:40Z</time>
      </trkpt>
      <trkpt lat="45.09242" lon="2.56151">
        <ele>958</ele>
        <time>2020-09-14T08:56:47Z</time>
      </trkpt>
      <trkpt lat="45.09242" lon="2.56151">
        <ele>958</ele>
        <time>2020-09-14T08:56:48Z</time>
      </trkpt>
      <trkpt lat="45.09243" lon="2.56159">
        <ele>957</ele>
        <time>2020-09-14T08:57:19Z</time>
      </trkpt>
      <trkpt lat="45.09239" lon="2.56169">
        <ele>956</ele>
        <time>2020-09-14T08:57:27Z</time>
      </trkpt>
      <trkpt lat="45.09237" lon="2.56174">
        <ele>956</ele>
        <time>2020-09-14T08:57:31Z</time>
      </trkpt>
      <trkpt lat="45.09237" lon="2.56174">
        <ele>956</ele>
        <time>2020-09-14T08:57:32Z</time>
      </trkpt>
      <trkpt lat="45.09239" lon="2.56175">
        <ele>955</ele>
        <time>2020-09-14T09:03:33Z</time>
      </trkpt>
      <trkpt lat="45.09247" lon="2.56175">
        <ele>955</ele>
        <time>2020-09-14T09:03:45Z</time>
      </trkpt>
      <trkpt lat="45.09249" lon="2.56186">
        <ele>955</ele>
        <time>2020-09-14T09:03:52Z</time>
      </trkpt>
      <trkpt lat="45.09251" lon="2.56197">
        <ele>956</ele>
        <time>2020-09-14T09:03:58Z</time>
      </trkpt>
      <trkpt lat="45.09251" lon="2.56209">
        <ele>956</ele>
        <time>2020-09-14T09:04:05Z</time>
      </trkpt>
      <trkpt lat="45.09252" lon="2.56219">
        <ele>957</ele>
        <time>2020-09-14T09:04:10Z</time>
      </trkpt>
      <trkpt lat="45.09253" lon="2.56231">
        <ele>957</ele>
        <time>2020-09-14T09:04:18Z</time>
      </trkpt>
      <trkpt lat="45.09253" lon="2.56244">
        <ele>957</ele>
        <time>2020-09-14T09:04:25Z</time>
      </trkpt>
      <trkpt lat="45.09254" lon="2.56255">
        <ele>957</ele>
        <time>2020-09-14T09:04:32Z</time>
      </trkpt>
      <trkpt lat="45.09255" lon="2.56267">
        <ele>957</ele>
        <time>2020-09-14T09:04:39Z</time>
      </trkpt>
      <trkpt lat="45.09255" lon="2.56279">
        <ele>956</ele>
        <time>2020-09-14T09:04:45Z</time>
      </trkpt>
      <trkpt lat="45.09256" lon="2.56291">
        <ele>956</ele>
        <time>2020-09-14T09:04:52Z</time>
      </trkpt>
      <trkpt lat="45.09259" lon="2.56301">
        <ele>957</ele>
        <time>2020-09-14T09:04:59Z</time>
      </trkpt>
      <trkpt lat="45.0926" lon="2.56313">
        <ele>957</ele>
        <time>2020-09-14T09:05:06Z</time>
      </trkpt>
      <trkpt lat="45.0926" lon="2.56325">
        <ele>956</ele>
        <time>2020-09-14T09:05:13Z</time>
      </trkpt>
      <trkpt lat="45.09258" lon="2.56336">
        <ele>956</ele>
        <time>2020-09-14T09:05:19Z</time>
      </trkpt>
      <trkpt lat="45.0926" lon="2.56348">
        <ele>956</ele>
        <time>2020-09-14T09:05:26Z</time>
      </trkpt>
      <trkpt lat="45.09263" lon="2.5636">
        <ele>957</ele>
        <time>2020-09-14T09:05:32Z</time>
      </trkpt>
      <trkpt lat="45.09264" lon="2.56371">
        <ele>957</ele>
        <time>2020-09-14T09:05:38Z</time>
      </trkpt>
      <trkpt lat="45.09265" lon="2.56383">
        <ele>955</ele>
        <time>2020-09-14T09:05:45Z</time>
      </trkpt>
      <trkpt lat="45.09267" lon="2.56395">
        <ele>954</ele>
        <time>2020-09-14T09:05:52Z</time>
      </trkpt>
      <trkpt lat="45.09268" lon="2.56407">
        <ele>955</ele>
        <time>2020-09-14T09:05:59Z</time>
      </trkpt>
      <trkpt lat="45.09269" lon="2.56418">
        <ele>955</ele>
        <time>2020-09-14T09:06:05Z</time>
      </trkpt>
      <trkpt lat="45.0927" lon="2.5643">
        <ele>955</ele>
        <time>2020-09-14T09:06:11Z</time>
      </trkpt>
      <trkpt lat="45.09272" lon="2.56442">
        <ele>956</ele>
        <time>2020-09-14T09:06:18Z</time>
      </trkpt>
      <trkpt lat="45.09273" lon="2.56454">
        <ele>955</ele>
        <time>2020-09-14T09:06:25Z</time>
      </trkpt>
      <trkpt lat="45.09276" lon="2.56464">
        <ele>954</ele>
        <time>2020-09-14T09:06:31Z</time>
      </trkpt>
      <trkpt lat="45.09278" lon="2.56475">
        <ele>955</ele>
        <time>2020-09-14T09:06:37Z</time>
      </trkpt>
      <trkpt lat="45.09279" lon="2.56486">
        <ele>955</ele>
        <time>2020-09-14T09:06:44Z</time>
      </trkpt>
      <trkpt lat="45.09282" lon="2.56495">
        <ele>954</ele>
        <time>2020-09-14T09:06:50Z</time>
      </trkpt>
      <trkpt lat="45.09283" lon="2.56507">
        <ele>955</ele>
        <time>2020-09-14T09:06:57Z</time>
      </trkpt>
      <trkpt lat="45.09285" lon="2.56519">
        <ele>954</ele>
        <time>2020-09-14T09:07:04Z</time>
      </trkpt>
      <trkpt lat="45.09285" lon="2.56531">
        <ele>955</ele>
        <time>2020-09-14T09:07:10Z</time>
      </trkpt>
      <trkpt lat="45.09287" lon="2.56543">
        <ele>954</ele>
        <time>2020-09-14T09:07:17Z</time>
      </trkpt>
      <trkpt lat="45.09289" lon="2.56556">
        <ele>955</ele>
        <time>2020-09-14T09:07:24Z</time>
      </trkpt>
      <trkpt lat="45.09291" lon="2.56566">
        <ele>954</ele>
        <time>2020-09-14T09:07:30Z</time>
      </trkpt>
      <trkpt lat="45.09293" lon="2.56579">
        <ele>956</ele>
        <time>2020-09-14T09:07:37Z</time>
      </trkpt>
      <trkpt lat="45.09293" lon="2.5659">
        <ele>957</ele>
        <time>2020-09-14T09:07:44Z</time>
      </trkpt>
      <trkpt lat="45.09292" lon="2.56602">
        <ele>958</ele>
        <time>2020-09-14T09:07:51Z</time>
      </trkpt>
      <trkpt lat="45.0929" lon="2.56613">
        <ele>958</ele>
        <time>2020-09-14T09:07:56Z</time>
      </trkpt>
      <trkpt lat="45.09289" lon="2.56625">
        <ele>960</ele>
        <time>2020-09-14T09:08:02Z</time>
      </trkpt>
      <trkpt lat="45.09289" lon="2.56637">
        <ele>959</ele>
        <time>2020-09-14T09:08:09Z</time>
      </trkpt>
      <trkpt lat="45.0929" lon="2.5665">
        <ele>960</ele>
        <time>2020-09-14T09:08:17Z</time>
      </trkpt>
      <trkpt lat="45.09291" lon="2.56662">
        <ele>962</ele>
        <time>2020-09-14T09:08:24Z</time>
      </trkpt>
      <trkpt lat="45.09294" lon="2.56673">
        <ele>963</ele>
        <time>2020-09-14T09:08:33Z</time>
      </trkpt>
      <trkpt lat="45.09297" lon="2.56683">
        <ele>963</ele>
        <time>2020-09-14T09:08:39Z</time>
      </trkpt>
      <trkpt lat="45.09298" lon="2.56695">
        <ele>962</ele>
        <time>2020-09-14T09:08:45Z</time>
      </trkpt>
      <trkpt lat="45.09299" lon="2.56703">
        <ele>962</ele>
        <time>2020-09-14T09:08:49Z</time>
      </trkpt>
      <trkpt lat="45.09302" lon="2.56715">
        <ele>963</ele>
        <time>2020-09-14T09:08:55Z</time>
      </trkpt>
      <trkpt lat="45.09303" lon="2.56727">
        <ele>963</ele>
        <time>2020-09-14T09:09:01Z</time>
      </trkpt>
      <trkpt lat="45.09302" lon="2.56739">
        <ele>964</ele>
        <time>2020-09-14T09:09:07Z</time>
      </trkpt>
      <trkpt lat="45.09299" lon="2.56751">
        <ele>963</ele>
        <time>2020-09-14T09:09:13Z</time>
      </trkpt>
      <trkpt lat="45.09297" lon="2.56761">
        <ele>961</ele>
        <time>2020-09-14T09:09:18Z</time>
      </trkpt>
      <trkpt lat="45.09296" lon="2.56773">
        <ele>959</ele>
        <time>2020-09-14T09:09:25Z</time>
      </trkpt>
      <trkpt lat="45.09298" lon="2.56785">
        <ele>959</ele>
        <time>2020-09-14T09:09:33Z</time>
      </trkpt>
      <trkpt lat="45.09302" lon="2.56796">
        <ele>958</ele>
        <time>2020-09-14T09:09:41Z</time>
      </trkpt>
      <trkpt lat="45.09307" lon="2.56804">
        <ele>957</ele>
        <time>2020-09-14T09:09:47Z</time>
      </trkpt>
      <trkpt lat="45.09311" lon="2.56814">
        <ele>958</ele>
        <time>2020-09-14T09:09:54Z</time>
      </trkpt>
      <trkpt lat="45.09314" lon="2.56825">
        <ele>958</ele>
        <time>2020-09-14T09:10:01Z</time>
      </trkpt>
      <trkpt lat="45.0932" lon="2.56834">
        <ele>958</ele>
        <time>2020-09-14T09:10:07Z</time>
      </trkpt>
      <trkpt lat="45.09323" lon="2.56846">
        <ele>957</ele>
        <time>2020-09-14T09:10:15Z</time>
      </trkpt>
      <trkpt lat="45.09326" lon="2.56857">
        <ele>957</ele>
        <time>2020-09-14T09:10:21Z</time>
      </trkpt>
      <trkpt lat="45.0933" lon="2.56867">
        <ele>956</ele>
        <time>2020-09-14T09:10:28Z</time>
      </trkpt>
      <trkpt lat="45.09328" lon="2.56878">
        <ele>955</ele>
        <time>2020-09-14T09:10:34Z</time>
      </trkpt>
      <trkpt lat="45.09328" lon="2.5689">
        <ele>954</ele>
        <time>2020-09-14T09:10:40Z</time>
      </trkpt>
      <trkpt lat="45.09329" lon="2.56902">
        <ele>953</ele>
        <time>2020-09-14T09:10:47Z</time>
      </trkpt>
      <trkpt lat="45.09331" lon="2.56914">
        <ele>954</ele>
        <time>2020-09-14T09:10:53Z</time>
      </trkpt>
      <trkpt lat="45.09333" lon="2.56926">
        <ele>955</ele>
        <time>2020-09-14T09:11:00Z</time>
      </trkpt>
      <trkpt lat="45.09335" lon="2.56938">
        <ele>955</ele>
        <time>2020-09-14T09:11:06Z</time>
      </trkpt>
      <trkpt lat="45.09337" lon="2.5695">
        <ele>956</ele>
        <time>2020-09-14T09:11:14Z</time>
      </trkpt>
      <trkpt lat="45.09339" lon="2.56962">
        <ele>955</ele>
        <time>2020-09-14T09:11:20Z</time>
      </trkpt>
      <trkpt lat="45.09342" lon="2.56972">
        <ele>954</ele>
        <time>2020-09-14T09:11:27Z</time>
      </trkpt>
      <trkpt lat="45.09341" lon="2.56985">
        <ele>954</ele>
        <time>2020-09-14T09:11:34Z</time>
      </trkpt>
      <trkpt lat="45.09344" lon="2.56995">
        <ele>954</ele>
        <time>2020-09-14T09:11:39Z</time>
      </trkpt>
      <trkpt lat="45.09345" lon="2.57007">
        <ele>954</ele>
        <time>2020-09-14T09:11:46Z</time>
      </trkpt>
      <trkpt lat="45.09347" lon="2.57019">
        <ele>954</ele>
        <time>2020-09-14T09:11:53Z</time>
      </trkpt>
      <trkpt lat="45.09349" lon="2.57031">
        <ele>954</ele>
        <time>2020-09-14T09:12:00Z</time>
      </trkpt>
      <trkpt lat="45.09351" lon="2.57042">
        <ele>955</ele>
        <time>2020-09-14T09:12:06Z</time>
      </trkpt>
      <trkpt lat="45.09353" lon="2.57054">
        <ele>955</ele>
        <time>2020-09-14T09:12:13Z</time>
      </trkpt>
      <trkpt lat="45.09355" lon="2.57065">
        <ele>956</ele>
        <time>2020-09-14T09:12:20Z</time>
      </trkpt>
      <trkpt lat="45.09357" lon="2.57076">
        <ele>956</ele>
        <time>2020-09-14T09:12:27Z</time>
      </trkpt>
      <trkpt lat="45.09361" lon="2.57087">
        <ele>956</ele>
        <time>2020-09-14T09:12:33Z</time>
      </trkpt>
      <trkpt lat="45.09365" lon="2.57097">
        <ele>956</ele>
        <time>2020-09-14T09:12:39Z</time>
      </trkpt>
      <trkpt lat="45.09369" lon="2.57108">
        <ele>955</ele>
        <time>2020-09-14T09:12:47Z</time>
      </trkpt>
      <trkpt lat="45.09375" lon="2.57116">
        <ele>955</ele>
        <time>2020-09-14T09:12:54Z</time>
      </trkpt>
      <trkpt lat="45.09381" lon="2.57124">
        <ele>954</ele>
        <time>2020-09-14T09:13:01Z</time>
      </trkpt>
      <trkpt lat="45.09386" lon="2.57134">
        <ele>954</ele>
        <time>2020-09-14T09:13:08Z</time>
      </trkpt>
      <trkpt lat="45.09392" lon="2.57143">
        <ele>952</ele>
        <time>2020-09-14T09:13:15Z</time>
      </trkpt>
      <trkpt lat="45.09397" lon="2.57152">
        <ele>952</ele>
        <time>2020-09-14T09:13:21Z</time>
      </trkpt>
      <trkpt lat="45.09404" lon="2.5716">
        <ele>952</ele>
        <time>2020-09-14T09:13:28Z</time>
      </trkpt>
      <trkpt lat="45.09411" lon="2.57168">
        <ele>952</ele>
        <time>2020-09-14T09:13:35Z</time>
      </trkpt>
      <trkpt lat="45.09417" lon="2.57176">
        <ele>953</ele>
        <time>2020-09-14T09:13:42Z</time>
      </trkpt>
      <trkpt lat="45.09422" lon="2.57187">
        <ele>953</ele>
        <time>2020-09-14T09:13:50Z</time>
      </trkpt>
      <trkpt lat="45.09426" lon="2.57197">
        <ele>953</ele>
        <time>2020-09-14T09:13:56Z</time>
      </trkpt>
      <trkpt lat="45.09428" lon="2.57209">
        <ele>953</ele>
        <time>2020-09-14T09:14:03Z</time>
      </trkpt>
      <trkpt lat="45.09431" lon="2.5722">
        <ele>952</ele>
        <time>2020-09-14T09:14:09Z</time>
      </trkpt>
      <trkpt lat="45.09436" lon="2.57229">
        <ele>952</ele>
        <time>2020-09-14T09:14:16Z</time>
      </trkpt>
      <trkpt lat="45.09438" lon="2.5724">
        <ele>952</ele>
        <time>2020-09-14T09:14:23Z</time>
      </trkpt>
      <trkpt lat="45.0944" lon="2.57249">
        <ele>950</ele>
        <time>2020-09-14T09:14:28Z</time>
      </trkpt>
      <trkpt lat="45.09442" lon="2.5726">
        <ele>951</ele>
        <time>2020-09-14T09:14:35Z</time>
      </trkpt>
      <trkpt lat="45.09445" lon="2.57271">
        <ele>953</ele>
        <time>2020-09-14T09:14:42Z</time>
      </trkpt>
      <trkpt lat="45.09447" lon="2.57282">
        <ele>952</ele>
        <time>2020-09-14T09:14:48Z</time>
      </trkpt>
      <trkpt lat="45.0945" lon="2.57291">
        <ele>951</ele>
        <time>2020-09-14T09:14:54Z</time>
      </trkpt>
      <trkpt lat="45.09453" lon="2.57302">
        <ele>951</ele>
        <time>2020-09-14T09:15:00Z</time>
      </trkpt>
      <trkpt lat="45.09456" lon="2.57313">
        <ele>949</ele>
        <time>2020-09-14T09:15:07Z</time>
      </trkpt>
      <trkpt lat="45.0946" lon="2.57324">
        <ele>949</ele>
        <time>2020-09-14T09:15:14Z</time>
      </trkpt>
      <trkpt lat="45.09463" lon="2.57334">
        <ele>950</ele>
        <time>2020-09-14T09:15:20Z</time>
      </trkpt>
      <trkpt lat="45.09466" lon="2.57345">
        <ele>948</ele>
        <time>2020-09-14T09:15:27Z</time>
      </trkpt>
      <trkpt lat="45.0947" lon="2.57356">
        <ele>949</ele>
        <time>2020-09-14T09:15:34Z</time>
      </trkpt>
      <trkpt lat="45.09473" lon="2.57368">
        <ele>947</ele>
        <time>2020-09-14T09:15:41Z</time>
      </trkpt>
      <trkpt lat="45.09476" lon="2.57379">
        <ele>949</ele>
        <time>2020-09-14T09:15:48Z</time>
      </trkpt>
      <trkpt lat="45.09478" lon="2.5739">
        <ele>950</ele>
        <time>2020-09-14T09:15:55Z</time>
      </trkpt>
      <trkpt lat="45.09482" lon="2.57398">
        <ele>949</ele>
        <time>2020-09-14T09:16:00Z</time>
      </trkpt>
      <trkpt lat="45.09485" lon="2.57409">
        <ele>948</ele>
        <time>2020-09-14T09:16:06Z</time>
      </trkpt>
      <trkpt lat="45.09488" lon="2.5742">
        <ele>949</ele>
        <time>2020-09-14T09:16:12Z</time>
      </trkpt>
      <trkpt lat="45.09494" lon="2.57428">
        <ele>950</ele>
        <time>2020-09-14T09:16:17Z</time>
      </trkpt>
      <trkpt lat="45.095" lon="2.57436">
        <ele>950</ele>
        <time>2020-09-14T09:16:24Z</time>
      </trkpt>
      <trkpt lat="45.09504" lon="2.57445">
        <ele>950</ele>
        <time>2020-09-14T09:16:30Z</time>
      </trkpt>
      <trkpt lat="45.09507" lon="2.57456">
        <ele>948</ele>
        <time>2020-09-14T09:16:38Z</time>
      </trkpt>
      <trkpt lat="45.0951" lon="2.57466">
        <ele>948</ele>
        <time>2020-09-14T09:16:44Z</time>
      </trkpt>
      <trkpt lat="45.09514" lon="2.57475">
        <ele>948</ele>
        <time>2020-09-14T09:16:49Z</time>
      </trkpt>
      <trkpt lat="45.09519" lon="2.57482">
        <ele>949</ele>
        <time>2020-09-14T09:16:55Z</time>
      </trkpt>
      <trkpt lat="45.09523" lon="2.57492">
        <ele>949</ele>
        <time>2020-09-14T09:17:00Z</time>
      </trkpt>
      <trkpt lat="45.09527" lon="2.57502">
        <ele>949</ele>
        <time>2020-09-14T09:17:06Z</time>
      </trkpt>
      <trkpt lat="45.09533" lon="2.57511">
        <ele>949</ele>
        <time>2020-09-14T09:17:13Z</time>
      </trkpt>
      <trkpt lat="45.09539" lon="2.57518">
        <ele>949</ele>
        <time>2020-09-14T09:17:19Z</time>
      </trkpt>
      <trkpt lat="45.09544" lon="2.57525">
        <ele>948</ele>
        <time>2020-09-14T09:17:25Z</time>
      </trkpt>
      <trkpt lat="45.09549" lon="2.57535">
        <ele>949</ele>
        <time>2020-09-14T09:17:31Z</time>
      </trkpt>
      <trkpt lat="45.09552" lon="2.57546">
        <ele>947</ele>
        <time>2020-09-14T09:17:38Z</time>
      </trkpt>
      <trkpt lat="45.09555" lon="2.57558">
        <ele>946</ele>
        <time>2020-09-14T09:17:45Z</time>
      </trkpt>
      <trkpt lat="45.09556" lon="2.5757">
        <ele>944</ele>
        <time>2020-09-14T09:17:51Z</time>
      </trkpt>
      <trkpt lat="45.09557" lon="2.57581">
        <ele>944</ele>
        <time>2020-09-14T09:17:59Z</time>
      </trkpt>
      <trkpt lat="45.0956" lon="2.5759">
        <ele>944</ele>
        <time>2020-09-14T09:18:05Z</time>
      </trkpt>
      <trkpt lat="45.09564" lon="2.57601">
        <ele>945</ele>
        <time>2020-09-14T09:18:11Z</time>
      </trkpt>
      <trkpt lat="45.09564" lon="2.57613">
        <ele>943</ele>
        <time>2020-09-14T09:18:17Z</time>
      </trkpt>
      <trkpt lat="45.09565" lon="2.57625">
        <ele>942</ele>
        <time>2020-09-14T09:18:24Z</time>
      </trkpt>
      <trkpt lat="45.09567" lon="2.57638">
        <ele>942</ele>
        <time>2020-09-14T09:18:31Z</time>
      </trkpt>
      <trkpt lat="45.09567" lon="2.5765">
        <ele>941</ele>
        <time>2020-09-14T09:18:38Z</time>
      </trkpt>
      <trkpt lat="45.09566" lon="2.57663">
        <ele>941</ele>
        <time>2020-09-14T09:18:45Z</time>
      </trkpt>
      <trkpt lat="45.09567" lon="2.57672">
        <ele>941</ele>
        <time>2020-09-14T09:18:50Z</time>
      </trkpt>
      <trkpt lat="45.09566" lon="2.57683">
        <ele>942</ele>
        <time>2020-09-14T09:18:56Z</time>
      </trkpt>
      <trkpt lat="45.09566" lon="2.57695">
        <ele>942</ele>
        <time>2020-09-14T09:19:02Z</time>
      </trkpt>
      <trkpt lat="45.09565" lon="2.57706">
        <ele>941</ele>
        <time>2020-09-14T09:19:08Z</time>
      </trkpt>
      <trkpt lat="45.09565" lon="2.57719">
        <ele>942</ele>
        <time>2020-09-14T09:19:15Z</time>
      </trkpt>
      <trkpt lat="45.09565" lon="2.57731">
        <ele>942</ele>
        <time>2020-09-14T09:19:22Z</time>
      </trkpt>
      <trkpt lat="45.09564" lon="2.57744">
        <ele>941</ele>
        <time>2020-09-14T09:19:29Z</time>
      </trkpt>
      <trkpt lat="45.09562" lon="2.57756">
        <ele>940</ele>
        <time>2020-09-14T09:19:36Z</time>
      </trkpt>
      <trkpt lat="45.09561" lon="2.57768">
        <ele>941</ele>
        <time>2020-09-14T09:19:42Z</time>
      </trkpt>
      <trkpt lat="45.09559" lon="2.5778">
        <ele>941</ele>
        <time>2020-09-14T09:19:49Z</time>
      </trkpt>
      <trkpt lat="45.0956" lon="2.57792">
        <ele>941</ele>
        <time>2020-09-14T09:19:56Z</time>
      </trkpt>
      <trkpt lat="45.0956" lon="2.57805">
        <ele>942</ele>
        <time>2020-09-14T09:20:03Z</time>
      </trkpt>
      <trkpt lat="45.09557" lon="2.57817">
        <ele>943</ele>
        <time>2020-09-14T09:20:09Z</time>
      </trkpt>
      <trkpt lat="45.09556" lon="2.57827">
        <ele>943</ele>
        <time>2020-09-14T09:20:15Z</time>
      </trkpt>
      <trkpt lat="45.09552" lon="2.57839">
        <ele>942</ele>
        <time>2020-09-14T09:20:22Z</time>
      </trkpt>
      <trkpt lat="45.09549" lon="2.5785">
        <ele>941</ele>
        <time>2020-09-14T09:20:29Z</time>
      </trkpt>
      <trkpt lat="45.09546" lon="2.57862">
        <ele>940</ele>
        <time>2020-09-14T09:20:36Z</time>
      </trkpt>
      <trkpt lat="45.09546" lon="2.57873">
        <ele>940</ele>
        <time>2020-09-14T09:20:43Z</time>
      </trkpt>
      <trkpt lat="45.09546" lon="2.57885">
        <ele>940</ele>
        <time>2020-09-14T09:20:49Z</time>
      </trkpt>
      <trkpt lat="45.09547" lon="2.57895">
        <ele>941</ele>
        <time>2020-09-14T09:20:54Z</time>
      </trkpt>
      <trkpt lat="45.09546" lon="2.57905">
        <ele>941</ele>
        <time>2020-09-14T09:21:00Z</time>
      </trkpt>
      <trkpt lat="45.09544" lon="2.57917">
        <ele>941</ele>
        <time>2020-09-14T09:21:07Z</time>
      </trkpt>
      <trkpt lat="45.09542" lon="2.57928">
        <ele>942</ele>
        <time>2020-09-14T09:21:13Z</time>
      </trkpt>
      <trkpt lat="45.09542" lon="2.57939">
        <ele>943</ele>
        <time>2020-09-14T09:21:22Z</time>
      </trkpt>
      <trkpt lat="45.09541" lon="2.5795">
        <ele>942</ele>
        <time>2020-09-14T09:21:29Z</time>
      </trkpt>
      <trkpt lat="45.0954" lon="2.57962">
        <ele>942</ele>
        <time>2020-09-14T09:21:36Z</time>
      </trkpt>
      <trkpt lat="45.09538" lon="2.57972">
        <ele>943</ele>
        <time>2020-09-14T09:21:42Z</time>
      </trkpt>
      <trkpt lat="45.0954" lon="2.57983">
        <ele>942</ele>
        <time>2020-09-14T09:21:48Z</time>
      </trkpt>
      <trkpt lat="45.0954" lon="2.57994">
        <ele>942</ele>
        <time>2020-09-14T09:21:55Z</time>
      </trkpt>
      <trkpt lat="45.09541" lon="2.58007">
        <ele>943</ele>
        <time>2020-09-14T09:22:01Z</time>
      </trkpt>
      <trkpt lat="45.09542" lon="2.58019">
        <ele>942</ele>
        <time>2020-09-14T09:22:08Z</time>
      </trkpt>
      <trkpt lat="45.09543" lon="2.58031">
        <ele>943</ele>
        <time>2020-09-14T09:22:14Z</time>
      </trkpt>
      <trkpt lat="45.09545" lon="2.58042">
        <ele>942</ele>
        <time>2020-09-14T09:22:21Z</time>
      </trkpt>
      <trkpt lat="45.09546" lon="2.58054">
        <ele>942</ele>
        <time>2020-09-14T09:22:27Z</time>
      </trkpt>
      <trkpt lat="45.09546" lon="2.58065">
        <ele>941</ele>
        <time>2020-09-14T09:22:34Z</time>
      </trkpt>
      <trkpt lat="45.09548" lon="2.58077">
        <ele>942</ele>
        <time>2020-09-14T09:22:40Z</time>
      </trkpt>
      <trkpt lat="45.09549" lon="2.58089">
        <ele>942</ele>
        <time>2020-09-14T09:22:46Z</time>
      </trkpt>
      <trkpt lat="45.09551" lon="2.58101">
        <ele>944</ele>
        <time>2020-09-14T09:22:53Z</time>
      </trkpt>
      <trkpt lat="45.09553" lon="2.58112">
        <ele>944</ele>
        <time>2020-09-14T09:22:59Z</time>
      </trkpt>
      <trkpt lat="45.09557" lon="2.58123">
        <ele>944</ele>
        <time>2020-09-14T09:23:06Z</time>
      </trkpt>
      <trkpt lat="45.09561" lon="2.58134">
        <ele>944</ele>
        <time>2020-09-14T09:23:13Z</time>
      </trkpt>
      <trkpt lat="45.09564" lon="2.58145">
        <ele>944</ele>
        <time>2020-09-14T09:23:20Z</time>
      </trkpt>
      <trkpt lat="45.09565" lon="2.58156">
        <ele>946</ele>
        <time>2020-09-14T09:23:25Z</time>
      </trkpt>
      <trkpt lat="45.09566" lon="2.58168">
        <ele>946</ele>
        <time>2020-09-14T09:23:31Z</time>
      </trkpt>
      <trkpt lat="45.09567" lon="2.58177">
        <ele>945</ele>
        <time>2020-09-14T09:23:36Z</time>
      </trkpt>
      <trkpt lat="45.09568" lon="2.58189">
        <ele>945</ele>
        <time>2020-09-14T09:23:42Z</time>
      </trkpt>
      <trkpt lat="45.0957" lon="2.58199">
        <ele>946</ele>
        <time>2020-09-14T09:23:49Z</time>
      </trkpt>
      <trkpt lat="45.09573" lon="2.58209">
        <ele>945</ele>
        <time>2020-09-14T09:23:55Z</time>
      </trkpt>
      <trkpt lat="45.09579" lon="2.58218">
        <ele>946</ele>
        <time>2020-09-14T09:24:03Z</time>
      </trkpt>
      <trkpt lat="45.09582" lon="2.58228">
        <ele>944</ele>
        <time>2020-09-14T09:24:09Z</time>
      </trkpt>
      <trkpt lat="45.09587" lon="2.58239">
        <ele>945</ele>
        <time>2020-09-14T09:24:16Z</time>
      </trkpt>
      <trkpt lat="45.09591" lon="2.58249">
        <ele>945</ele>
        <time>2020-09-14T09:24:23Z</time>
      </trkpt>
      <trkpt lat="45.09595" lon="2.58259">
        <ele>947</ele>
        <time>2020-09-14T09:24:30Z</time>
      </trkpt>
      <trkpt lat="45.09599" lon="2.58269">
        <ele>947</ele>
        <time>2020-09-14T09:24:37Z</time>
      </trkpt>
      <trkpt lat="45.09602" lon="2.58281">
        <ele>946</ele>
        <time>2020-09-14T09:24:44Z</time>
      </trkpt>
      <trkpt lat="45.09605" lon="2.58291">
        <ele>948</ele>
        <time>2020-09-14T09:24:52Z</time>
      </trkpt>
      <trkpt lat="45.09607" lon="2.58303">
        <ele>947</ele>
        <time>2020-09-14T09:24:58Z</time>
      </trkpt>
      <trkpt lat="45.09606" lon="2.58314">
        <ele>949</ele>
        <time>2020-09-14T09:25:05Z</time>
      </trkpt>
      <trkpt lat="45.09609" lon="2.58325">
        <ele>948</ele>
        <time>2020-09-14T09:25:11Z</time>
      </trkpt>
      <trkpt lat="45.09609" lon="2.58336">
        <ele>947</ele>
        <time>2020-09-14T09:25:17Z</time>
      </trkpt>
      <trkpt lat="45.0961" lon="2.58348">
        <ele>947</ele>
        <time>2020-09-14T09:25:23Z</time>
      </trkpt>
      <trkpt lat="45.09617" lon="2.58357">
        <ele>946</ele>
        <time>2020-09-14T09:25:30Z</time>
      </trkpt>
      <trkpt lat="45.09619" lon="2.58369">
        <ele>946</ele>
        <time>2020-09-14T09:25:37Z</time>
      </trkpt>
      <trkpt lat="45.09621" lon="2.58381">
        <ele>946</ele>
        <time>2020-09-14T09:25:43Z</time>
      </trkpt>
      <trkpt lat="45.09623" lon="2.58392">
        <ele>946</ele>
        <time>2020-09-14T09:25:49Z</time>
      </trkpt>
      <trkpt lat="45.09623" lon="2.58402">
        <ele>946</ele>
        <time>2020-09-14T09:25:55Z</time>
      </trkpt>
      <trkpt lat="45.09626" lon="2.58413">
        <ele>945</ele>
        <time>2020-09-14T09:26:01Z</time>
      </trkpt>
      <trkpt lat="45.09628" lon="2.58424">
        <ele>945</ele>
        <time>2020-09-14T09:26:07Z</time>
      </trkpt>
      <trkpt lat="45.0963" lon="2.58436">
        <ele>945</ele>
        <time>2020-09-14T09:26:13Z</time>
      </trkpt>
      <trkpt lat="45.09632" lon="2.58448">
        <ele>946</ele>
        <time>2020-09-14T09:26:20Z</time>
      </trkpt>
      <trkpt lat="45.09632" lon="2.58461">
        <ele>946</ele>
        <time>2020-09-14T09:26:28Z</time>
      </trkpt>
      <trkpt lat="45.09633" lon="2.58472">
        <ele>945</ele>
        <time>2020-09-14T09:26:35Z</time>
      </trkpt>
      <trkpt lat="45.09635" lon="2.58483">
        <ele>944</ele>
        <time>2020-09-14T09:26:41Z</time>
      </trkpt>
      <trkpt lat="45.09637" lon="2.58495">
        <ele>944</ele>
        <time>2020-09-14T09:26:49Z</time>
      </trkpt>
      <trkpt lat="45.09641" lon="2.58506">
        <ele>942</ele>
        <time>2020-09-14T09:26:56Z</time>
      </trkpt>
      <trkpt lat="45.09643" lon="2.58519">
        <ele>944</ele>
        <time>2020-09-14T09:27:03Z</time>
      </trkpt>
      <trkpt lat="45.09644" lon="2.5853">
        <ele>944</ele>
        <time>2020-09-14T09:27:10Z</time>
      </trkpt>
      <trkpt lat="45.09648" lon="2.5854">
        <ele>945</ele>
        <time>2020-09-14T09:27:17Z</time>
      </trkpt>
      <trkpt lat="45.0965" lon="2.58549">
        <ele>945</ele>
        <time>2020-09-14T09:27:22Z</time>
      </trkpt>
      <trkpt lat="45.09651" lon="2.58559">
        <ele>946</ele>
        <time>2020-09-14T09:27:28Z</time>
      </trkpt>
      <trkpt lat="45.09653" lon="2.5857">
        <ele>946</ele>
        <time>2020-09-14T09:27:34Z</time>
      </trkpt>
      <trkpt lat="45.09659" lon="2.5858">
        <ele>947</ele>
        <time>2020-09-14T09:27:40Z</time>
      </trkpt>
      <trkpt lat="45.09663" lon="2.58589">
        <ele>948</ele>
        <time>2020-09-14T09:27:45Z</time>
      </trkpt>
      <trkpt lat="45.09668" lon="2.58598">
        <ele>948</ele>
        <time>2020-09-14T09:27:51Z</time>
      </trkpt>
      <trkpt lat="45.09674" lon="2.58605">
        <ele>949</ele>
        <time>2020-09-14T09:27:57Z</time>
      </trkpt>
      <trkpt lat="45.09679" lon="2.58616">
        <ele>950</ele>
        <time>2020-09-14T09:28:03Z</time>
      </trkpt>
      <trkpt lat="45.09686" lon="2.58623">
        <ele>950</ele>
        <time>2020-09-14T09:28:09Z</time>
      </trkpt>
      <trkpt lat="45.09692" lon="2.5863">
        <ele>952</ele>
        <time>2020-09-14T09:28:16Z</time>
      </trkpt>
      <trkpt lat="45.09698" lon="2.58638">
        <ele>952</ele>
        <time>2020-09-14T09:28:23Z</time>
      </trkpt>
      <trkpt lat="45.09706" lon="2.58644">
        <ele>950</ele>
        <time>2020-09-14T09:28:31Z</time>
      </trkpt>
      <trkpt lat="45.09714" lon="2.58646">
        <ele>948</ele>
        <time>2020-09-14T09:28:38Z</time>
      </trkpt>
      <trkpt lat="45.09722" lon="2.58649">
        <ele>948</ele>
        <time>2020-09-14T09:28:45Z</time>
      </trkpt>
      <trkpt lat="45.09731" lon="2.58652">
        <ele>948</ele>
        <time>2020-09-14T09:28:51Z</time>
      </trkpt>
      <trkpt lat="45.09739" lon="2.58655">
        <ele>947</ele>
        <time>2020-09-14T09:28:57Z</time>
      </trkpt>
      <trkpt lat="45.09747" lon="2.5866">
        <ele>947</ele>
        <time>2020-09-14T09:29:04Z</time>
      </trkpt>
      <trkpt lat="45.09754" lon="2.58665">
        <ele>944</ele>
        <time>2020-09-14T09:29:10Z</time>
      </trkpt>
      <trkpt lat="45.0976" lon="2.58673">
        <ele>943</ele>
        <time>2020-09-14T09:29:16Z</time>
      </trkpt>
      <trkpt lat="45.09763" lon="2.58684">
        <ele>944</ele>
        <time>2020-09-14T09:29:22Z</time>
      </trkpt>
      <trkpt lat="45.09766" lon="2.58695">
        <ele>943</ele>
        <time>2020-09-14T09:29:28Z</time>
      </trkpt>
      <trkpt lat="45.09771" lon="2.58706">
        <ele>943</ele>
        <time>2020-09-14T09:29:36Z</time>
      </trkpt>
      <trkpt lat="45.09773" lon="2.58718">
        <ele>943</ele>
        <time>2020-09-14T09:29:43Z</time>
      </trkpt>
      <trkpt lat="45.09776" lon="2.58728">
        <ele>943</ele>
        <time>2020-09-14T09:29:49Z</time>
      </trkpt>
      <trkpt lat="45.09778" lon="2.5874">
        <ele>944</ele>
        <time>2020-09-14T09:29:56Z</time>
      </trkpt>
      <trkpt lat="45.09781" lon="2.58752">
        <ele>944</ele>
        <time>2020-09-14T09:30:03Z</time>
      </trkpt>
      <trkpt lat="45.09784" lon="2.58764">
        <ele>946</ele>
        <time>2020-09-14T09:30:09Z</time>
      </trkpt>
      <trkpt lat="45.09785" lon="2.58775">
        <ele>945</ele>
        <time>2020-09-14T09:30:16Z</time>
      </trkpt>
      <trkpt lat="45.09787" lon="2.58787">
        <ele>946</ele>
        <time>2020-09-14T09:30:24Z</time>
      </trkpt>
      <trkpt lat="45.09789" lon="2.58798">
        <ele>946</ele>
        <time>2020-09-14T09:30:30Z</time>
      </trkpt>
      <trkpt lat="45.09792" lon="2.58809">
        <ele>946</ele>
        <time>2020-09-14T09:30:36Z</time>
      </trkpt>
      <trkpt lat="45.09797" lon="2.58819">
        <ele>946</ele>
        <time>2020-09-14T09:30:43Z</time>
      </trkpt>
      <trkpt lat="45.09801" lon="2.58827">
        <ele>944</ele>
        <time>2020-09-14T09:30:48Z</time>
      </trkpt>
      <trkpt lat="45.09807" lon="2.58837">
        <ele>945</ele>
        <time>2020-09-14T09:30:55Z</time>
      </trkpt>
      <trkpt lat="45.09812" lon="2.58844">
        <ele>946</ele>
        <time>2020-09-14T09:31:02Z</time>
      </trkpt>
      <trkpt lat="45.09818" lon="2.58854">
        <ele>946</ele>
        <time>2020-09-14T09:31:09Z</time>
      </trkpt>
      <trkpt lat="45.09824" lon="2.58863">
        <ele>945</ele>
        <time>2020-09-14T09:31:16Z</time>
      </trkpt>
      <trkpt lat="45.09829" lon="2.58872">
        <ele>947</ele>
        <time>2020-09-14T09:31:23Z</time>
      </trkpt>
      <trkpt lat="45.09834" lon="2.58881">
        <ele>946</ele>
        <time>2020-09-14T09:31:30Z</time>
      </trkpt>
      <trkpt lat="45.09839" lon="2.5889">
        <ele>946</ele>
        <time>2020-09-14T09:31:37Z</time>
      </trkpt>
      <trkpt lat="45.09845" lon="2.58899">
        <ele>947</ele>
        <time>2020-09-14T09:31:43Z</time>
      </trkpt>
      <trkpt lat="45.09851" lon="2.58907">
        <ele>947</ele>
        <time>2020-09-14T09:31:50Z</time>
      </trkpt>
      <trkpt lat="45.09856" lon="2.58916">
        <ele>949</ele>
        <time>2020-09-14T09:31:56Z</time>
      </trkpt>
      <trkpt lat="45.09861" lon="2.58925">
        <ele>949</ele>
        <time>2020-09-14T09:32:03Z</time>
      </trkpt>
      <trkpt lat="45.09867" lon="2.58933">
        <ele>949</ele>
        <time>2020-09-14T09:32:10Z</time>
      </trkpt>
      <trkpt lat="45.09874" lon="2.58941">
        <ele>949</ele>
        <time>2020-09-14T09:32:17Z</time>
      </trkpt>
      <trkpt lat="45.0988" lon="2.58948">
        <ele>949</ele>
        <time>2020-09-14T09:32:23Z</time>
      </trkpt>
      <trkpt lat="45.09885" lon="2.58956">
        <ele>949</ele>
        <time>2020-09-14T09:32:30Z</time>
      </trkpt>
      <trkpt lat="45.0989" lon="2.58965">
        <ele>950</ele>
        <time>2020-09-14T09:32:36Z</time>
      </trkpt>
      <trkpt lat="45.09897" lon="2.58972">
        <ele>949</ele>
        <time>2020-09-14T09:32:42Z</time>
      </trkpt>
      <trkpt lat="45.09901" lon="2.58979">
        <ele>949</ele>
        <time>2020-09-14T09:32:47Z</time>
      </trkpt>
      <trkpt lat="45.09908" lon="2.58985">
        <ele>950</ele>
        <time>2020-09-14T09:32:53Z</time>
      </trkpt>
      <trkpt lat="45.09914" lon="2.58992">
        <ele>949</ele>
        <time>2020-09-14T09:32:59Z</time>
      </trkpt>
      <trkpt lat="45.0992" lon="2.58999">
        <ele>948</ele>
        <time>2020-09-14T09:33:04Z</time>
      </trkpt>
      <trkpt lat="45.09926" lon="2.59007">
        <ele>948</ele>
        <time>2020-09-14T09:33:10Z</time>
      </trkpt>
      <trkpt lat="45.09932" lon="2.59014">
        <ele>948</ele>
        <time>2020-09-14T09:33:17Z</time>
      </trkpt>
      <trkpt lat="45.09938" lon="2.59022">
        <ele>948</ele>
        <time>2020-09-14T09:33:23Z</time>
      </trkpt>
      <trkpt lat="45.09944" lon="2.59031">
        <ele>948</ele>
        <time>2020-09-14T09:33:30Z</time>
      </trkpt>
      <trkpt lat="45.0995" lon="2.59039">
        <ele>948</ele>
        <time>2020-09-14T09:33:37Z</time>
      </trkpt>
      <trkpt lat="45.09956" lon="2.59048">
        <ele>948</ele>
        <time>2020-09-14T09:33:43Z</time>
      </trkpt>
      <trkpt lat="45.09962" lon="2.59057">
        <ele>947</ele>
        <time>2020-09-14T09:33:50Z</time>
      </trkpt>
      <trkpt lat="45.09968" lon="2.59065">
        <ele>946</ele>
        <time>2020-09-14T09:33:56Z</time>
      </trkpt>
      <trkpt lat="45.09972" lon="2.59076">
        <ele>947</ele>
        <time>2020-09-14T09:34:02Z</time>
      </trkpt>
      <trkpt lat="45.09976" lon="2.59083">
        <ele>947</ele>
        <time>2020-09-14T09:34:07Z</time>
      </trkpt>
      <trkpt lat="45.0998" lon="2.59093">
        <ele>948</ele>
        <time>2020-09-14T09:34:13Z</time>
      </trkpt>
      <trkpt lat="45.09985" lon="2.59104">
        <ele>948</ele>
        <time>2020-09-14T09:34:19Z</time>
      </trkpt>
      <trkpt lat="45.09988" lon="2.59115">
        <ele>947</ele>
        <time>2020-09-14T09:34:26Z</time>
      </trkpt>
      <trkpt lat="45.09991" lon="2.59126">
        <ele>947</ele>
        <time>2020-09-14T09:34:33Z</time>
      </trkpt>
      <trkpt lat="45.09995" lon="2.59137">
        <ele>947</ele>
        <time>2020-09-14T09:34:40Z</time>
      </trkpt>
      <trkpt lat="45.09999" lon="2.59147">
        <ele>946</ele>
        <time>2020-09-14T09:34:46Z</time>
      </trkpt>
      <trkpt lat="45.10005" lon="2.59155">
        <ele>946</ele>
        <time>2020-09-14T09:34:53Z</time>
      </trkpt>
      <trkpt lat="45.10011" lon="2.59164">
        <ele>948</ele>
        <time>2020-09-14T09:35:02Z</time>
      </trkpt>
      <trkpt lat="45.10018" lon="2.59171">
        <ele>948</ele>
        <time>2020-09-14T09:35:08Z</time>
      </trkpt>
      <trkpt lat="45.10023" lon="2.59179">
        <ele>948</ele>
        <time>2020-09-14T09:35:13Z</time>
      </trkpt>
      <trkpt lat="45.10029" lon="2.59186">
        <ele>948</ele>
        <time>2020-09-14T09:35:20Z</time>
      </trkpt>
      <trkpt lat="45.10034" lon="2.59194">
        <ele>948</ele>
        <time>2020-09-14T09:35:26Z</time>
      </trkpt>
      <trkpt lat="45.10041" lon="2.59202">
        <ele>947</ele>
        <time>2020-09-14T09:35:33Z</time>
      </trkpt>
      <trkpt lat="45.10047" lon="2.5921">
        <ele>947</ele>
        <time>2020-09-14T09:35:40Z</time>
      </trkpt>
      <trkpt lat="45.10053" lon="2.59219">
        <ele>946</ele>
        <time>2020-09-14T09:35:48Z</time>
      </trkpt>
      <trkpt lat="45.1006" lon="2.59226">
        <ele>946</ele>
        <time>2020-09-14T09:35:54Z</time>
      </trkpt>
      <trkpt lat="45.10066" lon="2.59233">
        <ele>945</ele>
        <time>2020-09-14T09:36:01Z</time>
      </trkpt>
      <trkpt lat="45.10072" lon="2.59242">
        <ele>946</ele>
        <time>2020-09-14T09:36:08Z</time>
      </trkpt>
      <trkpt lat="45.10077" lon="2.5925">
        <ele>944</ele>
        <time>2020-09-14T09:36:15Z</time>
      </trkpt>
      <trkpt lat="45.10082" lon="2.5926">
        <ele>943</ele>
        <time>2020-09-14T09:36:21Z</time>
      </trkpt>
      <trkpt lat="45.10088" lon="2.59268">
        <ele>944</ele>
        <time>2020-09-14T09:36:27Z</time>
      </trkpt>
      <trkpt lat="45.10094" lon="2.59277">
        <ele>943</ele>
        <time>2020-09-14T09:36:34Z</time>
      </trkpt>
      <trkpt lat="45.101" lon="2.59286">
        <ele>943</ele>
        <time>2020-09-14T09:36:42Z</time>
      </trkpt>
      <trkpt lat="45.10104" lon="2.59298">
        <ele>943</ele>
        <time>2020-09-14T09:36:50Z</time>
      </trkpt>
      <trkpt lat="45.1011" lon="2.59305">
        <ele>943</ele>
        <time>2020-09-14T09:36:58Z</time>
      </trkpt>
      <trkpt lat="45.10114" lon="2.59316">
        <ele>944</ele>
        <time>2020-09-14T09:37:04Z</time>
      </trkpt>
      <trkpt lat="45.10117" lon="2.59326">
        <ele>942</ele>
        <time>2020-09-14T09:37:10Z</time>
      </trkpt>
      <trkpt lat="45.10122" lon="2.59337">
        <ele>942</ele>
        <time>2020-09-14T09:37:16Z</time>
      </trkpt>
      <trkpt lat="45.10124" lon="2.59349">
        <ele>942</ele>
        <time>2020-09-14T09:37:23Z</time>
      </trkpt>
      <trkpt lat="45.10128" lon="2.59358">
        <ele>941</ele>
        <time>2020-09-14T09:37:29Z</time>
      </trkpt>
      <trkpt lat="45.10131" lon="2.59368">
        <ele>942</ele>
        <time>2020-09-14T09:37:34Z</time>
      </trkpt>
      <trkpt lat="45.10135" lon="2.59378">
        <ele>941</ele>
        <time>2020-09-14T09:37:41Z</time>
      </trkpt>
      <trkpt lat="45.10137" lon="2.59389">
        <ele>941</ele>
        <time>2020-09-14T09:37:48Z</time>
      </trkpt>
      <trkpt lat="45.1014" lon="2.59399">
        <ele>942</ele>
        <time>2020-09-14T09:37:54Z</time>
      </trkpt>
      <trkpt lat="45.10145" lon="2.5941">
        <ele>942</ele>
        <time>2020-09-14T09:38:01Z</time>
      </trkpt>
      <trkpt lat="45.10148" lon="2.59422">
        <ele>942</ele>
        <time>2020-09-14T09:38:08Z</time>
      </trkpt>
      <trkpt lat="45.10151" lon="2.59433">
        <ele>943</ele>
        <time>2020-09-14T09:38:14Z</time>
      </trkpt>
      <trkpt lat="45.10156" lon="2.59443">
        <ele>942</ele>
        <time>2020-09-14T09:38:21Z</time>
      </trkpt>
      <trkpt lat="45.10163" lon="2.5945">
        <ele>942</ele>
        <time>2020-09-14T09:38:28Z</time>
      </trkpt>
      <trkpt lat="45.10167" lon="2.59453">
        <ele>941</ele>
        <time>2020-09-14T09:38:33Z</time>
      </trkpt>
      <trkpt lat="45.10167" lon="2.59453">
        <ele>941</ele>
        <time>2020-09-14T09:38:34Z</time>
      </trkpt>
    </trkseg>
  </trk>
</gpx>